<?xml version="1.0" encoding="UTF-8" standalone="no" ?>
<gpx xmlns="http://www.topografix.com/GPX/1/1" xmlns:xsi="http://www.w3.org/2001/XMLSchema-instance" xsi:schemaLocation="http://www.topografix.com/GPX/1/1 http://www.topografix.com/GPX/1/1/gpx.xsd" version="1.1" creator="VisuGPX - https://www.visugpx.com">
  <metadata>
    <name>Made_in_ROC</name>
  </metadata>
  <trk>
    <name><![CDATA[ROC d'Azur - 542/1815 en 6h38]]></name>
    <trkseg>
      <trkpt lat="43.39731" lon="6.67486">
        <ele>14.6</ele>
        <time>2020-10-04T20:27:46.141Z</time>
      </trkpt>
      <trkpt lat="43.39732" lon="6.6748">
        <ele>14.6</ele>
        <time>2020-10-04T19:16:59.595Z</time>
      </trkpt>
      <trkpt lat="43.39732" lon="6.6748">
        <ele>14.6</ele>
        <time>2020-10-04T19:16:59.595Z</time>
      </trkpt>
      <trkpt lat="43.39737" lon="6.67475">
        <ele>14.4</ele>
        <time>2020-10-04T19:17:00.110Z</time>
      </trkpt>
      <trkpt lat="43.39738" lon="6.67462">
        <ele>14.4</ele>
        <time>2020-10-04T19:17:01.436Z</time>
      </trkpt>
      <trkpt lat="43.39738" lon="6.67446">
        <ele>14.4</ele>
        <time>2020-10-04T19:17:02.995Z</time>
      </trkpt>
      <trkpt lat="43.39739" lon="6.67424">
        <ele>14.3</ele>
        <time>2020-10-04T19:17:05.050Z</time>
      </trkpt>
      <trkpt lat="43.39742" lon="6.67398">
        <ele>14.8</ele>
        <time>2020-10-04T19:17:08.493Z</time>
      </trkpt>
      <trkpt lat="43.39746" lon="6.67368">
        <ele>15.8</ele>
        <time>2020-10-04T19:17:13.563Z</time>
      </trkpt>
      <trkpt lat="43.39747" lon="6.67338">
        <ele>16.9</ele>
        <time>2020-10-04T19:17:18.844Z</time>
      </trkpt>
      <trkpt lat="43.39744" lon="6.67307">
        <ele>17.6</ele>
        <time>2020-10-04T19:17:23.126Z</time>
      </trkpt>
      <trkpt lat="43.39737" lon="6.67279">
        <ele>18.3</ele>
        <time>2020-10-04T19:17:27.272Z</time>
      </trkpt>
      <trkpt lat="43.39725" lon="6.67256">
        <ele>18.9</ele>
        <time>2020-10-04T19:17:31.162Z</time>
      </trkpt>
      <trkpt lat="43.39711" lon="6.6724">
        <ele>18.6</ele>
        <time>2020-10-04T19:17:33.177Z</time>
      </trkpt>
      <trkpt lat="43.39698" lon="6.6723">
        <ele>18.2</ele>
        <time>2020-10-04T19:17:34.726Z</time>
      </trkpt>
      <trkpt lat="43.39687" lon="6.67225">
        <ele>18</ele>
        <time>2020-10-04T19:17:36.038Z</time>
      </trkpt>
      <trkpt lat="43.39677" lon="6.67207">
        <ele>17.4</ele>
        <time>2020-10-04T19:17:37.485Z</time>
      </trkpt>
      <trkpt lat="43.39664" lon="6.67208">
        <ele>17.7</ele>
        <time>2020-10-04T19:17:39.766Z</time>
      </trkpt>
      <trkpt lat="43.39634" lon="6.672">
        <ele>19.9</ele>
        <time>2020-10-04T19:17:48.304Z</time>
      </trkpt>
      <trkpt lat="43.3961" lon="6.67209">
        <ele>22.7</ele>
        <time>2020-10-04T19:17:58.333Z</time>
      </trkpt>
      <trkpt lat="43.3959" lon="6.6722">
        <ele>25.7</ele>
        <time>2020-10-04T19:18:09.435Z</time>
      </trkpt>
      <trkpt lat="43.39568" lon="6.67214">
        <ele>26.8</ele>
        <time>2020-10-04T19:18:14.819Z</time>
      </trkpt>
      <trkpt lat="43.39552" lon="6.67193">
        <ele>25.5</ele>
        <time>2020-10-04T19:18:16.468Z</time>
      </trkpt>
      <trkpt lat="43.3954" lon="6.6717">
        <ele>23.5</ele>
        <time>2020-10-04T19:18:18.026Z</time>
      </trkpt>
      <trkpt lat="43.39526" lon="6.67151">
        <ele>22.8</ele>
        <time>2020-10-04T19:18:19.899Z</time>
      </trkpt>
      <trkpt lat="43.39509" lon="6.6714">
        <ele>22.9</ele>
        <time>2020-10-04T19:18:22.588Z</time>
      </trkpt>
      <trkpt lat="43.395" lon="6.67133">
        <ele>22.8</ele>
        <time>2020-10-04T19:18:23.896Z</time>
      </trkpt>
      <trkpt lat="43.39494" lon="6.67118">
        <ele>22.2</ele>
        <time>2020-10-04T19:18:24.886Z</time>
      </trkpt>
      <trkpt lat="43.39482" lon="6.67104">
        <ele>22.6</ele>
        <time>2020-10-04T19:18:27.617Z</time>
      </trkpt>
      <trkpt lat="43.39464" lon="6.67094">
        <ele>24.2</ele>
        <time>2020-10-04T19:18:33.517Z</time>
      </trkpt>
      <trkpt lat="43.39454" lon="6.67078">
        <ele>24.4</ele>
        <time>2020-10-04T19:18:35.939Z</time>
      </trkpt>
      <trkpt lat="43.39439" lon="6.67055">
        <ele>25.2</ele>
        <time>2020-10-04T19:18:40.445Z</time>
      </trkpt>
      <trkpt lat="43.39428" lon="6.67038">
        <ele>25.2</ele>
        <time>2020-10-04T19:18:42.695Z</time>
      </trkpt>
      <trkpt lat="43.39417" lon="6.67017">
        <ele>24.5</ele>
        <time>2020-10-04T19:18:44.423Z</time>
      </trkpt>
      <trkpt lat="43.39407" lon="6.66992">
        <ele>23.8</ele>
        <time>2020-10-04T19:18:46.331Z</time>
      </trkpt>
      <trkpt lat="43.3939" lon="6.66973">
        <ele>24.3</ele>
        <time>2020-10-04T19:18:50.155Z</time>
      </trkpt>
      <trkpt lat="43.3937" lon="6.66954">
        <ele>24.2</ele>
        <time>2020-10-04T19:18:53.238Z</time>
      </trkpt>
      <trkpt lat="43.39348" lon="6.66932">
        <ele>22.8</ele>
        <time>2020-10-04T19:18:55.422Z</time>
      </trkpt>
      <trkpt lat="43.39326" lon="6.66918">
        <ele>22.3</ele>
        <time>2020-10-04T19:18:57.985Z</time>
      </trkpt>
      <trkpt lat="43.39305" lon="6.66902">
        <ele>24.9</ele>
        <time>2020-10-04T19:19:07.256Z</time>
      </trkpt>
      <trkpt lat="43.39277" lon="6.66883">
        <ele>27.3</ele>
        <time>2020-10-04T19:19:16.336Z</time>
      </trkpt>
      <trkpt lat="43.39259" lon="6.66849">
        <ele>25.5</ele>
        <time>2020-10-04T19:19:18.569Z</time>
      </trkpt>
      <trkpt lat="43.39249" lon="6.66813">
        <ele>23</ele>
        <time>2020-10-04T19:19:20.722Z</time>
      </trkpt>
      <trkpt lat="43.39277" lon="6.66729">
        <ele>20.6</ele>
        <time>2020-10-04T19:19:26.967Z</time>
      </trkpt>
      <trkpt lat="43.39281" lon="6.66703">
        <ele>22.3</ele>
        <time>2020-10-04T19:19:33.092Z</time>
      </trkpt>
      <trkpt lat="43.39276" lon="6.66686">
        <ele>23.1</ele>
        <time>2020-10-04T19:19:36.442Z</time>
      </trkpt>
      <trkpt lat="43.39266" lon="6.66664">
        <ele>24.1</ele>
        <time>2020-10-04T19:19:41.037Z</time>
      </trkpt>
      <trkpt lat="43.39269" lon="6.66641">
        <ele>26.8</ele>
        <time>2020-10-04T19:19:50.002Z</time>
      </trkpt>
      <trkpt lat="43.39289" lon="6.66603">
        <ele>32.1</ele>
        <time>2020-10-04T19:20:07.778Z</time>
      </trkpt>
      <trkpt lat="43.39308" lon="6.66557">
        <ele>38.6</ele>
        <time>2020-10-04T19:20:27.821Z</time>
      </trkpt>
      <trkpt lat="43.39337" lon="6.66504">
        <ele>46</ele>
        <time>2020-10-04T19:20:53.186Z</time>
      </trkpt>
      <trkpt lat="43.3935" lon="6.665">
        <ele>44.1</ele>
        <time>2020-10-04T19:20:54.261Z</time>
      </trkpt>
      <trkpt lat="43.3938" lon="6.66488">
        <ele>39.7</ele>
        <time>2020-10-04T19:20:56.647Z</time>
      </trkpt>
      <trkpt lat="43.39395" lon="6.66483">
        <ele>37.3</ele>
        <time>2020-10-04T19:20:57.811Z</time>
      </trkpt>
      <trkpt lat="43.3941" lon="6.66478">
        <ele>35</ele>
        <time>2020-10-04T19:20:59.000Z</time>
      </trkpt>
      <trkpt lat="43.39425" lon="6.66473">
        <ele>34.5</ele>
        <time>2020-10-04T19:21:00.444Z</time>
      </trkpt>
      <trkpt lat="43.39438" lon="6.66466">
        <ele>35.3</ele>
        <time>2020-10-04T19:21:03.891Z</time>
      </trkpt>
      <trkpt lat="43.39451" lon="6.66457">
        <ele>35.9</ele>
        <time>2020-10-04T19:21:07.085Z</time>
      </trkpt>
      <trkpt lat="43.39464" lon="6.66452">
        <ele>36.3</ele>
        <time>2020-10-04T19:21:09.663Z</time>
      </trkpt>
      <trkpt lat="43.39478" lon="6.66448">
        <ele>36.6</ele>
        <time>2020-10-04T19:21:12.030Z</time>
      </trkpt>
      <trkpt lat="43.3949" lon="6.66445">
        <ele>36.8</ele>
        <time>2020-10-04T19:21:14.077Z</time>
      </trkpt>
      <trkpt lat="43.39504" lon="6.66444">
        <ele>37.3</ele>
        <time>2020-10-04T19:21:16.902Z</time>
      </trkpt>
      <trkpt lat="43.39517" lon="6.66438">
        <ele>38</ele>
        <time>2020-10-04T19:21:20.173Z</time>
      </trkpt>
      <trkpt lat="43.3953" lon="6.66433">
        <ele>38.6</ele>
        <time>2020-10-04T19:21:23.252Z</time>
      </trkpt>
      <trkpt lat="43.39544" lon="6.66432">
        <ele>39.6</ele>
        <time>2020-10-04T19:21:27.123Z</time>
      </trkpt>
      <trkpt lat="43.39558" lon="6.66433">
        <ele>40.8</ele>
        <time>2020-10-04T19:21:31.489Z</time>
      </trkpt>
      <trkpt lat="43.39572" lon="6.66436">
        <ele>42.4</ele>
        <time>2020-10-04T19:21:37.222Z</time>
      </trkpt>
      <trkpt lat="43.39587" lon="6.66441">
        <ele>44.2</ele>
        <time>2020-10-04T19:21:43.708Z</time>
      </trkpt>
      <trkpt lat="43.39606" lon="6.66442">
        <ele>45.8</ele>
        <time>2020-10-04T19:21:49.500Z</time>
      </trkpt>
      <trkpt lat="43.39621" lon="6.66439">
        <ele>46.8</ele>
        <time>2020-10-04T19:21:53.573Z</time>
      </trkpt>
      <trkpt lat="43.39635" lon="6.66435">
        <ele>47.6</ele>
        <time>2020-10-04T19:21:57.205Z</time>
      </trkpt>
      <trkpt lat="43.3965" lon="6.66428">
        <ele>48.3</ele>
        <time>2020-10-04T19:22:00.751Z</time>
      </trkpt>
      <trkpt lat="43.3966" lon="6.66419">
        <ele>48.5</ele>
        <time>2020-10-04T19:22:02.700Z</time>
      </trkpt>
      <trkpt lat="43.3967" lon="6.66414">
        <ele>49.3</ele>
        <time>2020-10-04T19:22:05.747Z</time>
      </trkpt>
      <trkpt lat="43.39678" lon="6.66418">
        <ele>50.3</ele>
        <time>2020-10-04T19:22:09.391Z</time>
      </trkpt>
      <trkpt lat="43.39687" lon="6.66434">
        <ele>52.1</ele>
        <time>2020-10-04T19:22:16.069Z</time>
      </trkpt>
      <trkpt lat="43.39697" lon="6.66447">
        <ele>53.5</ele>
        <time>2020-10-04T19:22:21.041Z</time>
      </trkpt>
      <trkpt lat="43.39703" lon="6.66436">
        <ele>53.6</ele>
        <time>2020-10-04T19:22:22.473Z</time>
      </trkpt>
      <trkpt lat="43.39699" lon="6.66423">
        <ele>52.8</ele>
        <time>2020-10-04T19:22:23.239Z</time>
      </trkpt>
      <trkpt lat="43.39699" lon="6.66408">
        <ele>52.2</ele>
        <time>2020-10-04T19:22:24.119Z</time>
      </trkpt>
      <trkpt lat="43.39705" lon="6.66396">
        <ele>52.4</ele>
        <time>2020-10-04T19:22:25.791Z</time>
      </trkpt>
      <trkpt lat="43.39713" lon="6.66389">
        <ele>52.9</ele>
        <time>2020-10-04T19:22:28.090Z</time>
      </trkpt>
      <trkpt lat="43.39726" lon="6.66389">
        <ele>54.1</ele>
        <time>2020-10-04T19:22:32.397Z</time>
      </trkpt>
      <trkpt lat="43.39737" lon="6.66396">
        <ele>55.5</ele>
        <time>2020-10-04T19:22:37.423Z</time>
      </trkpt>
      <trkpt lat="43.39748" lon="6.66401">
        <ele>56.8</ele>
        <time>2020-10-04T19:22:42.203Z</time>
      </trkpt>
      <trkpt lat="43.39757" lon="6.66406">
        <ele>58</ele>
        <time>2020-10-04T19:22:46.597Z</time>
      </trkpt>
      <trkpt lat="43.39767" lon="6.66409">
        <ele>59.1</ele>
        <time>2020-10-04T19:22:50.526Z</time>
      </trkpt>
      <trkpt lat="43.39776" lon="6.66406">
        <ele>59.9</ele>
        <time>2020-10-04T19:22:53.497Z</time>
      </trkpt>
      <trkpt lat="43.39783" lon="6.66397">
        <ele>60.4</ele>
        <time>2020-10-04T19:22:55.810Z</time>
      </trkpt>
      <trkpt lat="43.39791" lon="6.66387">
        <ele>61.1</ele>
        <time>2020-10-04T19:22:58.668Z</time>
      </trkpt>
      <trkpt lat="43.39795" lon="6.66372">
        <ele>61.4</ele>
        <time>2020-10-04T19:23:00.741Z</time>
      </trkpt>
      <trkpt lat="43.39798" lon="6.66355">
        <ele>61.8</ele>
        <time>2020-10-04T19:23:03.207Z</time>
      </trkpt>
      <trkpt lat="43.398" lon="6.66336">
        <ele>62</ele>
        <time>2020-10-04T19:23:05.372Z</time>
      </trkpt>
      <trkpt lat="43.39795" lon="6.66314">
        <ele>62.8</ele>
        <time>2020-10-04T19:23:09.363Z</time>
      </trkpt>
      <trkpt lat="43.39784" lon="6.663">
        <ele>61.7</ele>
        <time>2020-10-04T19:23:10.487Z</time>
      </trkpt>
      <trkpt lat="43.39774" lon="6.6629">
        <ele>60.4</ele>
        <time>2020-10-04T19:23:11.422Z</time>
      </trkpt>
      <trkpt lat="43.39768" lon="6.66277">
        <ele>59.9</ele>
        <time>2020-10-04T19:23:12.390Z</time>
      </trkpt>
      <trkpt lat="43.39767" lon="6.66265">
        <ele>60.4</ele>
        <time>2020-10-04T19:23:14.520Z</time>
      </trkpt>
      <trkpt lat="43.39775" lon="6.66263">
        <ele>62.5</ele>
        <time>2020-10-04T19:23:18.953Z</time>
      </trkpt>
      <trkpt lat="43.39784" lon="6.66265">
        <ele>64.4</ele>
        <time>2020-10-04T19:23:23.502Z</time>
      </trkpt>
      <trkpt lat="43.39786" lon="6.66244">
        <ele>66.5</ele>
        <time>2020-10-04T19:23:31.548Z</time>
      </trkpt>
      <trkpt lat="43.39778" lon="6.66234">
        <ele>65.2</ele>
        <time>2020-10-04T19:23:32.379Z</time>
      </trkpt>
      <trkpt lat="43.39771" lon="6.66222">
        <ele>64.5</ele>
        <time>2020-10-04T19:23:33.187Z</time>
      </trkpt>
      <trkpt lat="43.39771" lon="6.66207">
        <ele>65.6</ele>
        <time>2020-10-04T19:23:37.094Z</time>
      </trkpt>
      <trkpt lat="43.39778" lon="6.66202">
        <ele>67.7</ele>
        <time>2020-10-04T19:23:41.343Z</time>
      </trkpt>
      <trkpt lat="43.39787" lon="6.66207">
        <ele>69.5</ele>
        <time>2020-10-04T19:23:46.589Z</time>
      </trkpt>
      <trkpt lat="43.39797" lon="6.66208">
        <ele>71.8</ele>
        <time>2020-10-04T19:23:51.760Z</time>
      </trkpt>
      <trkpt lat="43.39807" lon="6.66202">
        <ele>74.5</ele>
        <time>2020-10-04T19:23:57.187Z</time>
      </trkpt>
      <trkpt lat="43.39834" lon="6.66189">
        <ele>81.8</ele>
        <time>2020-10-04T19:24:12.729Z</time>
      </trkpt>
      <trkpt lat="43.39859" lon="6.66154">
        <ele>88.3</ele>
        <time>2020-10-04T19:24:31.276Z</time>
      </trkpt>
      <trkpt lat="43.39891" lon="6.66134">
        <ele>96.2</ele>
        <time>2020-10-04T19:24:49.967Z</time>
      </trkpt>
      <trkpt lat="43.39922" lon="6.66112">
        <ele>103.6</ele>
        <time>2020-10-04T19:25:08.150Z</time>
      </trkpt>
      <trkpt lat="43.39963" lon="6.6606">
        <ele>105.8</ele>
        <time>2020-10-04T19:25:20.073Z</time>
      </trkpt>
      <trkpt lat="43.40037" lon="6.65895">
        <ele>111.4</ele>
        <time>2020-10-04T19:25:50.300Z</time>
      </trkpt>
      <trkpt lat="43.40064" lon="6.65839">
        <ele>115.8</ele>
        <time>2020-10-04T19:26:06.178Z</time>
      </trkpt>
      <trkpt lat="43.40075" lon="6.65799">
        <ele>122.3</ele>
        <time>2020-10-04T19:26:22.079Z</time>
      </trkpt>
      <trkpt lat="43.40082" lon="6.65768">
        <ele>128.4</ele>
        <time>2020-10-04T19:26:34.760Z</time>
      </trkpt>
      <trkpt lat="43.40096" lon="6.6573">
        <ele>131.2</ele>
        <time>2020-10-04T19:26:44.823Z</time>
      </trkpt>
      <trkpt lat="43.40101" lon="6.6571">
        <ele>131.7</ele>
        <time>2020-10-04T19:26:47.833Z</time>
      </trkpt>
      <trkpt lat="43.40108" lon="6.65689">
        <ele>132.3</ele>
        <time>2020-10-04T19:26:51.168Z</time>
      </trkpt>
      <trkpt lat="43.40116" lon="6.65678">
        <ele>131.6</ele>
        <time>2020-10-04T19:26:52.054Z</time>
      </trkpt>
      <trkpt lat="43.40126" lon="6.65692">
        <ele>128.4</ele>
        <time>2020-10-04T19:26:53.130Z</time>
      </trkpt>
      <trkpt lat="43.40132" lon="6.65732">
        <ele>123.3</ele>
        <time>2020-10-04T19:26:55.412Z</time>
      </trkpt>
      <trkpt lat="43.40135" lon="6.65757">
        <ele>120.1</ele>
        <time>2020-10-04T19:26:56.774Z</time>
      </trkpt>
      <trkpt lat="43.40129" lon="6.65767">
        <ele>119.6</ele>
        <time>2020-10-04T19:26:57.463Z</time>
      </trkpt>
      <trkpt lat="43.4013" lon="6.65801">
        <ele>114.6</ele>
        <time>2020-10-04T19:26:59.372Z</time>
      </trkpt>
      <trkpt lat="43.40139" lon="6.65833">
        <ele>109.1</ele>
        <time>2020-10-04T19:27:01.249Z</time>
      </trkpt>
      <trkpt lat="43.40151" lon="6.65855">
        <ele>106.6</ele>
        <time>2020-10-04T19:27:02.784Z</time>
      </trkpt>
      <trkpt lat="43.40153" lon="6.65878">
        <ele>105.4</ele>
        <time>2020-10-04T19:27:04.077Z</time>
      </trkpt>
      <trkpt lat="43.40148" lon="6.659">
        <ele>104.3</ele>
        <time>2020-10-04T19:27:05.264Z</time>
      </trkpt>
      <trkpt lat="43.40146" lon="6.65919">
        <ele>103.2</ele>
        <time>2020-10-04T19:27:06.347Z</time>
      </trkpt>
      <trkpt lat="43.40143" lon="6.65942">
        <ele>102.6</ele>
        <time>2020-10-04T19:27:07.858Z</time>
      </trkpt>
      <trkpt lat="43.40141" lon="6.65958">
        <ele>102</ele>
        <time>2020-10-04T19:27:08.806Z</time>
      </trkpt>
      <trkpt lat="43.40145" lon="6.66004">
        <ele>101.2</ele>
        <time>2020-10-04T19:27:12.364Z</time>
      </trkpt>
      <trkpt lat="43.40156" lon="6.66012">
        <ele>102.3</ele>
        <time>2020-10-04T19:27:16.317Z</time>
      </trkpt>
      <trkpt lat="43.40174" lon="6.6601">
        <ele>105.5</ele>
        <time>2020-10-04T19:27:26.043Z</time>
      </trkpt>
      <trkpt lat="43.40195" lon="6.66017">
        <ele>110.5</ele>
        <time>2020-10-04T19:27:37.622Z</time>
      </trkpt>
      <trkpt lat="43.40203" lon="6.66035">
        <ele>111.3</ele>
        <time>2020-10-04T19:27:41.368Z</time>
      </trkpt>
      <trkpt lat="43.40215" lon="6.66048">
        <ele>113.3</ele>
        <time>2020-10-04T19:27:49.122Z</time>
      </trkpt>
      <trkpt lat="43.40257" lon="6.66076">
        <ele>119.7</ele>
        <time>2020-10-04T19:28:13.927Z</time>
      </trkpt>
      <trkpt lat="43.40241" lon="6.66067">
        <ele>117.5</ele>
        <time>2020-10-04T19:28:15.322Z</time>
      </trkpt>
      <trkpt lat="43.40308" lon="6.66118">
        <ele>123</ele>
        <time>2020-10-04T19:28:36.747Z</time>
      </trkpt>
      <trkpt lat="43.40339" lon="6.66103">
        <ele>127.6</ele>
        <time>2020-10-04T19:28:53.958Z</time>
      </trkpt>
      <trkpt lat="43.40369" lon="6.66095">
        <ele>128.3</ele>
        <time>2020-10-04T19:28:59.182Z</time>
      </trkpt>
      <trkpt lat="43.40398" lon="6.66071">
        <ele>132.2</ele>
        <time>2020-10-04T19:29:13.218Z</time>
      </trkpt>
      <trkpt lat="43.40416" lon="6.66035">
        <ele>139.3</ele>
        <time>2020-10-04T19:29:29.647Z</time>
      </trkpt>
      <trkpt lat="43.40432" lon="6.66019">
        <ele>140.6</ele>
        <time>2020-10-04T19:29:34.981Z</time>
      </trkpt>
      <trkpt lat="43.40474" lon="6.66014">
        <ele>137.3</ele>
        <time>2020-10-04T19:29:38.157Z</time>
      </trkpt>
      <trkpt lat="43.40494" lon="6.65989">
        <ele>140.6</ele>
        <time>2020-10-04T19:29:50.328Z</time>
      </trkpt>
      <trkpt lat="43.40511" lon="6.65961">
        <ele>146.8</ele>
        <time>2020-10-04T19:30:04.020Z</time>
      </trkpt>
      <trkpt lat="43.4054" lon="6.66024">
        <ele>132.1</ele>
        <time>2020-10-04T19:30:08.180Z</time>
      </trkpt>
      <trkpt lat="43.40566" lon="6.66044">
        <ele>128.8</ele>
        <time>2020-10-04T19:30:10.397Z</time>
      </trkpt>
      <trkpt lat="43.40589" lon="6.66041">
        <ele>129.9</ele>
        <time>2020-10-04T19:30:15.887Z</time>
      </trkpt>
      <trkpt lat="43.40607" lon="6.66053">
        <ele>130.9</ele>
        <time>2020-10-04T19:30:20.628Z</time>
      </trkpt>
      <trkpt lat="43.40628" lon="6.66066">
        <ele>131.6</ele>
        <time>2020-10-04T19:30:24.983Z</time>
      </trkpt>
      <trkpt lat="43.40721" lon="6.66176">
        <ele>133.6</ele>
        <time>2020-10-04T19:30:44.683Z</time>
      </trkpt>
      <trkpt lat="43.40745" lon="6.66186">
        <ele>136.9</ele>
        <time>2020-10-04T19:30:57.388Z</time>
      </trkpt>
      <trkpt lat="43.40762" lon="6.66209">
        <ele>136.4</ele>
        <time>2020-10-04T19:30:59.968Z</time>
      </trkpt>
      <trkpt lat="43.40806" lon="6.66266">
        <ele>135.8</ele>
        <time>2020-10-04T19:31:07.396Z</time>
      </trkpt>
      <trkpt lat="43.40854" lon="6.66341">
        <ele>135.4</ele>
        <time>2020-10-04T19:31:16.514Z</time>
      </trkpt>
      <trkpt lat="43.40892" lon="6.66414">
        <ele>130.1</ele>
        <time>2020-10-04T19:31:21.491Z</time>
      </trkpt>
      <trkpt lat="43.40921" lon="6.66455">
        <ele>119.1</ele>
        <time>2020-10-04T19:31:24.743Z</time>
      </trkpt>
      <trkpt lat="43.40944" lon="6.66471">
        <ele>117.6</ele>
        <time>2020-10-04T19:31:26.642Z</time>
      </trkpt>
      <trkpt lat="43.41054" lon="6.66506">
        <ele>116.1</ele>
        <time>2020-10-04T19:31:39.924Z</time>
      </trkpt>
      <trkpt lat="43.41074" lon="6.66503">
        <ele>117.1</ele>
        <time>2020-10-04T19:31:44.700Z</time>
      </trkpt>
      <trkpt lat="43.41101" lon="6.66486">
        <ele>117.1</ele>
        <time>2020-10-04T19:31:48.772Z</time>
      </trkpt>
      <trkpt lat="43.41129" lon="6.66421">
        <ele>115.8</ele>
        <time>2020-10-04T19:31:54.441Z</time>
      </trkpt>
      <trkpt lat="43.41167" lon="6.66351">
        <ele>107</ele>
        <time>2020-10-04T19:31:59.305Z</time>
      </trkpt>
      <trkpt lat="43.41226" lon="6.6628">
        <ele>93</ele>
        <time>2020-10-04T19:32:05.305Z</time>
      </trkpt>
      <trkpt lat="43.41254" lon="6.66253">
        <ele>86.8</ele>
        <time>2020-10-04T19:32:07.947Z</time>
      </trkpt>
      <trkpt lat="43.41312" lon="6.66258">
        <ele>82.6</ele>
        <time>2020-10-04T19:32:12.345Z</time>
      </trkpt>
      <trkpt lat="43.41334" lon="6.66279">
        <ele>83</ele>
        <time>2020-10-04T19:32:16.604Z</time>
      </trkpt>
      <trkpt lat="43.41343" lon="6.66315">
        <ele>85.2</ele>
        <time>2020-10-04T19:32:24.811Z</time>
      </trkpt>
      <trkpt lat="43.4134" lon="6.66349">
        <ele>87.4</ele>
        <time>2020-10-04T19:32:32.752Z</time>
      </trkpt>
      <trkpt lat="43.4135" lon="6.66389">
        <ele>84.8</ele>
        <time>2020-10-04T19:32:35.128Z</time>
      </trkpt>
      <trkpt lat="43.4137" lon="6.66417">
        <ele>80.5</ele>
        <time>2020-10-04T19:32:37.309Z</time>
      </trkpt>
      <trkpt lat="43.41398" lon="6.66433">
        <ele>74.1</ele>
        <time>2020-10-04T19:32:39.594Z</time>
      </trkpt>
      <trkpt lat="43.41423" lon="6.66447">
        <ele>68.9</ele>
        <time>2020-10-04T19:32:41.693Z</time>
      </trkpt>
      <trkpt lat="43.41435" lon="6.66478">
        <ele>66.2</ele>
        <time>2020-10-04T19:32:43.620Z</time>
      </trkpt>
      <trkpt lat="43.41453" lon="6.66487">
        <ele>63.5</ele>
        <time>2020-10-04T19:32:45.079Z</time>
      </trkpt>
      <trkpt lat="43.41471" lon="6.6649">
        <ele>60.8</ele>
        <time>2020-10-04T19:32:46.526Z</time>
      </trkpt>
      <trkpt lat="43.41487" lon="6.66493">
        <ele>58.6</ele>
        <time>2020-10-04T19:32:47.761Z</time>
      </trkpt>
      <trkpt lat="43.41504" lon="6.66495">
        <ele>56.8</ele>
        <time>2020-10-04T19:32:49.051Z</time>
      </trkpt>
      <trkpt lat="43.4152" lon="6.66501">
        <ele>56.5</ele>
        <time>2020-10-04T19:32:50.825Z</time>
      </trkpt>
      <trkpt lat="43.41533" lon="6.66496">
        <ele>55.9</ele>
        <time>2020-10-04T19:32:52.018Z</time>
      </trkpt>
      <trkpt lat="43.41547" lon="6.66495">
        <ele>55.4</ele>
        <time>2020-10-04T19:32:53.344Z</time>
      </trkpt>
      <trkpt lat="43.41558" lon="6.66503">
        <ele>55.3</ele>
        <time>2020-10-04T19:32:54.909Z</time>
      </trkpt>
      <trkpt lat="43.41569" lon="6.66508">
        <ele>55.9</ele>
        <time>2020-10-04T19:32:57.658Z</time>
      </trkpt>
      <trkpt lat="43.41583" lon="6.66495">
        <ele>54.2</ele>
        <time>2020-10-04T19:32:58.973Z</time>
      </trkpt>
      <trkpt lat="43.41603" lon="6.66482">
        <ele>54.2</ele>
        <time>2020-10-04T19:33:01.965Z</time>
      </trkpt>
      <trkpt lat="43.41628" lon="6.66486">
        <ele>53.1</ele>
        <time>2020-10-04T19:33:04.160Z</time>
      </trkpt>
      <trkpt lat="43.41637" lon="6.66516">
        <ele>55.2</ele>
        <time>2020-10-04T19:33:11.726Z</time>
      </trkpt>
      <trkpt lat="43.41653" lon="6.66511">
        <ele>54</ele>
        <time>2020-10-04T19:33:13.023Z</time>
      </trkpt>
      <trkpt lat="43.41673" lon="6.66496">
        <ele>51.8</ele>
        <time>2020-10-04T19:33:14.727Z</time>
      </trkpt>
      <trkpt lat="43.41697" lon="6.66487">
        <ele>50.8</ele>
        <time>2020-10-04T19:33:16.945Z</time>
      </trkpt>
      <trkpt lat="43.41722" lon="6.6648">
        <ele>49.6</ele>
        <time>2020-10-04T19:33:19.095Z</time>
      </trkpt>
      <trkpt lat="43.41745" lon="6.66481">
        <ele>48.8</ele>
        <time>2020-10-04T19:33:21.150Z</time>
      </trkpt>
      <trkpt lat="43.41745" lon="6.66498">
        <ele>50</ele>
        <time>2020-10-04T19:33:25.420Z</time>
      </trkpt>
      <trkpt lat="43.41741" lon="6.66524">
        <ele>53.6</ele>
        <time>2020-10-04T19:33:35.598Z</time>
      </trkpt>
      <trkpt lat="43.41754" lon="6.66545">
        <ele>56.3</ele>
        <time>2020-10-04T19:33:46.247Z</time>
      </trkpt>
      <trkpt lat="43.41763" lon="6.66561">
        <ele>58.3</ele>
        <time>2020-10-04T19:33:53.993Z</time>
      </trkpt>
      <trkpt lat="43.41776" lon="6.66552">
        <ele>56.4</ele>
        <time>2020-10-04T19:33:55.132Z</time>
      </trkpt>
      <trkpt lat="43.4179" lon="6.66534">
        <ele>53.2</ele>
        <time>2020-10-04T19:33:56.619Z</time>
      </trkpt>
      <trkpt lat="43.4181" lon="6.66517">
        <ele>49.7</ele>
        <time>2020-10-04T19:33:58.406Z</time>
      </trkpt>
      <trkpt lat="43.41836" lon="6.66507">
        <ele>46.9</ele>
        <time>2020-10-04T19:34:00.471Z</time>
      </trkpt>
      <trkpt lat="43.41866" lon="6.66518">
        <ele>47.2</ele>
        <time>2020-10-04T19:34:05.115Z</time>
      </trkpt>
      <trkpt lat="43.41888" lon="6.66511">
        <ele>44.9</ele>
        <time>2020-10-04T19:34:06.890Z</time>
      </trkpt>
      <trkpt lat="43.41898" lon="6.66512">
        <ele>44.6</ele>
        <time>2020-10-04T19:34:07.827Z</time>
      </trkpt>
      <trkpt lat="43.41899" lon="6.66519">
        <ele>45.6</ele>
        <time>2020-10-04T19:34:10.600Z</time>
      </trkpt>
      <trkpt lat="43.41899" lon="6.66519">
        <ele>45.6</ele>
        <time>2020-10-04T19:34:10.600Z</time>
      </trkpt>
      <trkpt lat="43.41899" lon="6.66519">
        <ele>45.6</ele>
        <time>2020-10-04T19:34:10.600Z</time>
      </trkpt>
      <trkpt lat="43.41899" lon="6.66519">
        <ele>45.6</ele>
        <time>2020-10-04T19:34:10.600Z</time>
      </trkpt>
      <trkpt lat="43.41899" lon="6.66519">
        <ele>45.6</ele>
        <time>2020-10-04T19:34:10.600Z</time>
      </trkpt>
      <trkpt lat="43.41899" lon="6.66519">
        <ele>45.6</ele>
        <time>2020-10-04T19:34:10.600Z</time>
      </trkpt>
      <trkpt lat="43.41899" lon="6.66519">
        <ele>45.6</ele>
        <time>2020-10-04T19:34:10.600Z</time>
      </trkpt>
      <trkpt lat="43.41899" lon="6.66519">
        <ele>45.6</ele>
        <time>2020-10-04T19:34:10.600Z</time>
      </trkpt>
      <trkpt lat="43.41899" lon="6.66519">
        <ele>45.6</ele>
        <time>2020-10-04T19:34:10.600Z</time>
      </trkpt>
      <trkpt lat="43.41899" lon="6.66519">
        <ele>45.6</ele>
        <time>2020-10-04T19:34:10.600Z</time>
      </trkpt>
      <trkpt lat="43.41899" lon="6.66519">
        <ele>45.6</ele>
        <time>2020-10-04T19:34:10.600Z</time>
      </trkpt>
      <trkpt lat="43.41899" lon="6.66519">
        <ele>45.6</ele>
        <time>2020-10-04T19:34:10.600Z</time>
      </trkpt>
      <trkpt lat="43.41899" lon="6.66519">
        <ele>45.6</ele>
        <time>2020-10-04T19:34:10.600Z</time>
      </trkpt>
      <trkpt lat="43.41899" lon="6.66519">
        <ele>45.6</ele>
        <time>2020-10-04T19:34:10.600Z</time>
      </trkpt>
      <trkpt lat="43.41899" lon="6.66519">
        <ele>45.6</ele>
        <time>2020-10-04T19:34:10.600Z</time>
      </trkpt>
      <trkpt lat="43.41899" lon="6.66519">
        <ele>45.6</ele>
        <time>2020-10-04T19:34:10.600Z</time>
      </trkpt>
      <trkpt lat="43.41899" lon="6.66519">
        <ele>45.6</ele>
        <time>2020-10-04T19:34:10.600Z</time>
      </trkpt>
      <trkpt lat="43.41899" lon="6.66519">
        <ele>45.6</ele>
        <time>2020-10-04T19:34:10.600Z</time>
      </trkpt>
      <trkpt lat="43.41899" lon="6.66519">
        <ele>45.6</ele>
        <time>2020-10-04T19:34:10.600Z</time>
      </trkpt>
      <trkpt lat="43.41899" lon="6.66519">
        <ele>45.6</ele>
        <time>2020-10-04T19:34:10.600Z</time>
      </trkpt>
      <trkpt lat="43.41899" lon="6.66519">
        <ele>45.6</ele>
        <time>2020-10-04T19:34:10.600Z</time>
      </trkpt>
      <trkpt lat="43.41899" lon="6.66519">
        <ele>45.6</ele>
        <time>2020-10-04T19:34:10.600Z</time>
      </trkpt>
      <trkpt lat="43.41899" lon="6.66519">
        <ele>45.6</ele>
        <time>2020-10-04T19:34:10.600Z</time>
      </trkpt>
      <trkpt lat="43.41899" lon="6.66519">
        <ele>45.6</ele>
        <time>2020-10-04T19:34:10.600Z</time>
      </trkpt>
      <trkpt lat="43.41899" lon="6.66519">
        <ele>45.6</ele>
        <time>2020-10-04T19:34:10.600Z</time>
      </trkpt>
      <trkpt lat="43.41899" lon="6.66519">
        <ele>45.6</ele>
        <time>2020-10-04T19:34:10.600Z</time>
      </trkpt>
      <trkpt lat="43.41899" lon="6.66519">
        <ele>45.6</ele>
        <time>2020-10-04T19:34:10.600Z</time>
      </trkpt>
      <trkpt lat="43.41899" lon="6.66519">
        <ele>45.6</ele>
        <time>2020-10-04T19:34:10.600Z</time>
      </trkpt>
      <trkpt lat="43.41899" lon="6.66519">
        <ele>45.6</ele>
        <time>2020-10-04T19:34:10.600Z</time>
      </trkpt>
      <trkpt lat="43.41899" lon="6.66519">
        <ele>45.6</ele>
        <time>2020-10-04T19:34:10.600Z</time>
      </trkpt>
      <trkpt lat="43.41899" lon="6.66519">
        <ele>45.6</ele>
        <time>2020-10-04T19:34:10.600Z</time>
      </trkpt>
      <trkpt lat="43.41899" lon="6.66519">
        <ele>45.6</ele>
        <time>2020-10-04T19:34:10.600Z</time>
      </trkpt>
      <trkpt lat="43.41899" lon="6.66519">
        <ele>45.6</ele>
        <time>2020-10-04T19:34:10.600Z</time>
      </trkpt>
      <trkpt lat="43.41899" lon="6.66519">
        <ele>45.6</ele>
        <time>2020-10-04T19:34:10.600Z</time>
      </trkpt>
      <trkpt lat="43.41899" lon="6.66519">
        <ele>45.6</ele>
        <time>2020-10-04T19:34:10.600Z</time>
      </trkpt>
      <trkpt lat="43.41899" lon="6.66519">
        <ele>45.6</ele>
        <time>2020-10-04T19:34:10.600Z</time>
      </trkpt>
      <trkpt lat="43.41899" lon="6.66519">
        <ele>45.6</ele>
        <time>2020-10-04T19:34:10.600Z</time>
      </trkpt>
      <trkpt lat="43.41899" lon="6.66519">
        <ele>45.6</ele>
        <time>2020-10-04T19:34:10.600Z</time>
      </trkpt>
      <trkpt lat="43.41899" lon="6.66519">
        <ele>45.6</ele>
        <time>2020-10-04T19:34:10.600Z</time>
      </trkpt>
      <trkpt lat="43.41899" lon="6.66519">
        <ele>45.6</ele>
        <time>2020-10-04T19:34:10.600Z</time>
      </trkpt>
      <trkpt lat="43.41899" lon="6.66519">
        <ele>45.6</ele>
        <time>2020-10-04T19:34:10.600Z</time>
      </trkpt>
      <trkpt lat="43.41899" lon="6.66519">
        <ele>45.6</ele>
        <time>2020-10-04T19:34:10.600Z</time>
      </trkpt>
      <trkpt lat="43.41899" lon="6.66519">
        <ele>45.6</ele>
        <time>2020-10-04T19:34:10.600Z</time>
      </trkpt>
      <trkpt lat="43.41899" lon="6.66519">
        <ele>45.6</ele>
        <time>2020-10-04T19:34:10.600Z</time>
      </trkpt>
      <trkpt lat="43.41899" lon="6.66519">
        <ele>45.6</ele>
        <time>2020-10-04T19:34:10.600Z</time>
      </trkpt>
      <trkpt lat="43.41899" lon="6.66519">
        <ele>45.6</ele>
        <time>2020-10-04T19:34:10.600Z</time>
      </trkpt>
      <trkpt lat="43.41899" lon="6.66519">
        <ele>45.6</ele>
        <time>2020-10-04T19:34:10.600Z</time>
      </trkpt>
      <trkpt lat="43.41899" lon="6.66519">
        <ele>45.6</ele>
        <time>2020-10-04T19:34:10.600Z</time>
      </trkpt>
      <trkpt lat="43.41899" lon="6.66519">
        <ele>45.6</ele>
        <time>2020-10-04T19:34:10.600Z</time>
      </trkpt>
      <trkpt lat="43.41899" lon="6.66519">
        <ele>45.6</ele>
        <time>2020-10-04T19:34:10.600Z</time>
      </trkpt>
      <trkpt lat="43.41899" lon="6.66519">
        <ele>45.6</ele>
        <time>2020-10-04T19:34:10.600Z</time>
      </trkpt>
      <trkpt lat="43.41899" lon="6.66519">
        <ele>45.6</ele>
        <time>2020-10-04T19:34:10.600Z</time>
      </trkpt>
      <trkpt lat="43.41899" lon="6.66519">
        <ele>45.6</ele>
        <time>2020-10-04T19:34:10.600Z</time>
      </trkpt>
      <trkpt lat="43.41899" lon="6.66519">
        <ele>45.6</ele>
        <time>2020-10-04T19:34:10.600Z</time>
      </trkpt>
      <trkpt lat="43.41899" lon="6.66519">
        <ele>45.6</ele>
        <time>2020-10-04T19:34:10.600Z</time>
      </trkpt>
      <trkpt lat="43.41899" lon="6.66519">
        <ele>45.6</ele>
        <time>2020-10-04T19:34:10.600Z</time>
      </trkpt>
      <trkpt lat="43.41899" lon="6.66519">
        <ele>45.6</ele>
        <time>2020-10-04T19:34:10.600Z</time>
      </trkpt>
      <trkpt lat="43.41899" lon="6.66519">
        <ele>45.6</ele>
        <time>2020-10-04T19:34:10.600Z</time>
      </trkpt>
      <trkpt lat="43.41899" lon="6.66519">
        <ele>45.6</ele>
        <time>2020-10-04T19:34:10.600Z</time>
      </trkpt>
      <trkpt lat="43.41899" lon="6.66519">
        <ele>45.6</ele>
        <time>2020-10-04T19:34:10.600Z</time>
      </trkpt>
      <trkpt lat="43.41899" lon="6.66519">
        <ele>45.6</ele>
        <time>2020-10-04T19:34:10.600Z</time>
      </trkpt>
      <trkpt lat="43.41899" lon="6.66519">
        <ele>45.6</ele>
        <time>2020-10-04T19:34:10.600Z</time>
      </trkpt>
      <trkpt lat="43.41899" lon="6.66519">
        <ele>45.6</ele>
        <time>2020-10-04T19:34:10.600Z</time>
      </trkpt>
      <trkpt lat="43.41899" lon="6.66519">
        <ele>45.6</ele>
        <time>2020-10-04T19:34:10.600Z</time>
      </trkpt>
      <trkpt lat="43.41899" lon="6.66519">
        <ele>45.6</ele>
        <time>2020-10-04T19:34:10.600Z</time>
      </trkpt>
      <trkpt lat="43.41899" lon="6.66519">
        <ele>45.6</ele>
        <time>2020-10-04T19:34:10.600Z</time>
      </trkpt>
      <trkpt lat="43.41899" lon="6.66519">
        <ele>45.6</ele>
        <time>2020-10-04T19:34:10.600Z</time>
      </trkpt>
      <trkpt lat="43.41899" lon="6.66519">
        <ele>45.6</ele>
        <time>2020-10-04T19:34:10.600Z</time>
      </trkpt>
      <trkpt lat="43.41899" lon="6.66519">
        <ele>45.6</ele>
        <time>2020-10-04T19:34:10.600Z</time>
      </trkpt>
      <trkpt lat="43.41899" lon="6.66519">
        <ele>45.6</ele>
        <time>2020-10-04T19:34:10.600Z</time>
      </trkpt>
      <trkpt lat="43.41899" lon="6.66519">
        <ele>45.6</ele>
        <time>2020-10-04T19:34:10.600Z</time>
      </trkpt>
      <trkpt lat="43.41899" lon="6.66519">
        <ele>45.6</ele>
        <time>2020-10-04T19:34:10.600Z</time>
      </trkpt>
      <trkpt lat="43.41899" lon="6.66519">
        <ele>45.6</ele>
        <time>2020-10-04T19:34:10.600Z</time>
      </trkpt>
      <trkpt lat="43.41899" lon="6.66519">
        <ele>45.6</ele>
        <time>2020-10-04T19:34:10.600Z</time>
      </trkpt>
      <trkpt lat="43.41899" lon="6.66519">
        <ele>45.6</ele>
        <time>2020-10-04T19:34:10.600Z</time>
      </trkpt>
      <trkpt lat="43.41899" lon="6.66519">
        <ele>45.6</ele>
        <time>2020-10-04T19:34:10.600Z</time>
      </trkpt>
      <trkpt lat="43.41899" lon="6.66519">
        <ele>45.6</ele>
        <time>2020-10-04T19:34:10.600Z</time>
      </trkpt>
      <trkpt lat="43.41899" lon="6.66519">
        <ele>45.6</ele>
        <time>2020-10-04T19:34:10.600Z</time>
      </trkpt>
      <trkpt lat="43.41899" lon="6.66519">
        <ele>45.6</ele>
        <time>2020-10-04T19:34:10.600Z</time>
      </trkpt>
      <trkpt lat="43.41899" lon="6.66519">
        <ele>45.6</ele>
        <time>2020-10-04T19:34:10.600Z</time>
      </trkpt>
      <trkpt lat="43.41899" lon="6.66519">
        <ele>45.6</ele>
        <time>2020-10-04T19:34:10.600Z</time>
      </trkpt>
      <trkpt lat="43.41899" lon="6.66519">
        <ele>45.6</ele>
        <time>2020-10-04T19:34:10.600Z</time>
      </trkpt>
      <trkpt lat="43.41899" lon="6.66519">
        <ele>45.6</ele>
        <time>2020-10-04T19:34:10.600Z</time>
      </trkpt>
      <trkpt lat="43.41899" lon="6.66519">
        <ele>45.6</ele>
        <time>2020-10-04T19:34:10.600Z</time>
      </trkpt>
      <trkpt lat="43.41899" lon="6.66519">
        <ele>45.6</ele>
        <time>2020-10-04T19:34:10.600Z</time>
      </trkpt>
      <trkpt lat="43.41899" lon="6.66519">
        <ele>45.6</ele>
        <time>2020-10-04T19:34:10.600Z</time>
      </trkpt>
      <trkpt lat="43.41899" lon="6.66519">
        <ele>45.6</ele>
        <time>2020-10-04T19:34:10.600Z</time>
      </trkpt>
      <trkpt lat="43.41899" lon="6.66519">
        <ele>45.6</ele>
        <time>2020-10-04T19:34:10.600Z</time>
      </trkpt>
      <trkpt lat="43.41899" lon="6.66519">
        <ele>45.6</ele>
        <time>2020-10-04T19:34:10.600Z</time>
      </trkpt>
      <trkpt lat="43.41899" lon="6.66519">
        <ele>45.6</ele>
        <time>2020-10-04T19:34:10.600Z</time>
      </trkpt>
      <trkpt lat="43.41899" lon="6.66519">
        <ele>45.6</ele>
        <time>2020-10-04T19:34:10.600Z</time>
      </trkpt>
      <trkpt lat="43.41899" lon="6.66519">
        <ele>45.6</ele>
        <time>2020-10-04T19:34:10.600Z</time>
      </trkpt>
      <trkpt lat="43.41899" lon="6.66519">
        <ele>45.6</ele>
        <time>2020-10-04T19:34:10.600Z</time>
      </trkpt>
      <trkpt lat="43.41899" lon="6.66519">
        <ele>45.6</ele>
        <time>2020-10-04T19:34:10.600Z</time>
      </trkpt>
      <trkpt lat="43.41899" lon="6.66519">
        <ele>45.6</ele>
        <time>2020-10-04T19:34:10.600Z</time>
      </trkpt>
      <trkpt lat="43.41899" lon="6.66519">
        <ele>45.6</ele>
        <time>2020-10-04T19:34:10.600Z</time>
      </trkpt>
      <trkpt lat="43.41899" lon="6.66519">
        <ele>45.6</ele>
        <time>2020-10-04T19:34:10.600Z</time>
      </trkpt>
      <trkpt lat="43.41899" lon="6.66519">
        <ele>45.6</ele>
        <time>2020-10-04T19:34:10.600Z</time>
      </trkpt>
      <trkpt lat="43.41899" lon="6.66519">
        <ele>45.6</ele>
        <time>2020-10-04T19:34:10.600Z</time>
      </trkpt>
      <trkpt lat="43.41899" lon="6.66519">
        <ele>45.6</ele>
        <time>2020-10-04T19:34:10.600Z</time>
      </trkpt>
      <trkpt lat="43.41899" lon="6.66519">
        <ele>45.6</ele>
        <time>2020-10-04T19:34:10.600Z</time>
      </trkpt>
      <trkpt lat="43.41899" lon="6.66519">
        <ele>45.6</ele>
        <time>2020-10-04T19:34:10.600Z</time>
      </trkpt>
      <trkpt lat="43.41899" lon="6.66519">
        <ele>45.6</ele>
        <time>2020-10-04T19:34:10.600Z</time>
      </trkpt>
      <trkpt lat="43.41899" lon="6.66519">
        <ele>45.6</ele>
        <time>2020-10-04T19:34:10.600Z</time>
      </trkpt>
      <trkpt lat="43.41899" lon="6.66519">
        <ele>45.6</ele>
        <time>2020-10-04T19:34:10.600Z</time>
      </trkpt>
      <trkpt lat="43.41899" lon="6.66519">
        <ele>45.6</ele>
        <time>2020-10-04T19:34:10.600Z</time>
      </trkpt>
      <trkpt lat="43.41899" lon="6.66519">
        <ele>45.6</ele>
        <time>2020-10-04T19:34:10.600Z</time>
      </trkpt>
      <trkpt lat="43.41899" lon="6.66519">
        <ele>45.6</ele>
        <time>2020-10-04T19:34:10.600Z</time>
      </trkpt>
      <trkpt lat="43.419" lon="6.66519">
        <ele>45.6</ele>
        <time>2020-10-04T19:34:10.766Z</time>
      </trkpt>
      <trkpt lat="43.419" lon="6.66519">
        <ele>45.6</ele>
        <time>2020-10-04T19:34:10.766Z</time>
      </trkpt>
      <trkpt lat="43.419" lon="6.66519">
        <ele>45.6</ele>
        <time>2020-10-04T19:34:10.766Z</time>
      </trkpt>
      <trkpt lat="43.419" lon="6.66519">
        <ele>45.6</ele>
        <time>2020-10-04T19:34:10.766Z</time>
      </trkpt>
      <trkpt lat="43.419" lon="6.66519">
        <ele>45.6</ele>
        <time>2020-10-04T19:34:10.766Z</time>
      </trkpt>
      <trkpt lat="43.419" lon="6.66519">
        <ele>45.6</ele>
        <time>2020-10-04T19:34:10.766Z</time>
      </trkpt>
      <trkpt lat="43.419" lon="6.66519">
        <ele>45.6</ele>
        <time>2020-10-04T19:34:10.766Z</time>
      </trkpt>
      <trkpt lat="43.419" lon="6.66519">
        <ele>45.6</ele>
        <time>2020-10-04T19:34:10.766Z</time>
      </trkpt>
      <trkpt lat="43.419" lon="6.66519">
        <ele>45.6</ele>
        <time>2020-10-04T19:34:10.766Z</time>
      </trkpt>
      <trkpt lat="43.419" lon="6.66519">
        <ele>45.6</ele>
        <time>2020-10-04T19:34:10.766Z</time>
      </trkpt>
      <trkpt lat="43.419" lon="6.66519">
        <ele>45.6</ele>
        <time>2020-10-04T19:34:10.766Z</time>
      </trkpt>
      <trkpt lat="43.419" lon="6.66519">
        <ele>45.6</ele>
        <time>2020-10-04T19:34:10.766Z</time>
      </trkpt>
      <trkpt lat="43.419" lon="6.66519">
        <ele>45.6</ele>
        <time>2020-10-04T19:34:10.766Z</time>
      </trkpt>
      <trkpt lat="43.419" lon="6.66519">
        <ele>45.6</ele>
        <time>2020-10-04T19:34:10.766Z</time>
      </trkpt>
      <trkpt lat="43.419" lon="6.66519">
        <ele>45.6</ele>
        <time>2020-10-04T19:34:10.766Z</time>
      </trkpt>
      <trkpt lat="43.419" lon="6.66519">
        <ele>45.6</ele>
        <time>2020-10-04T19:34:10.766Z</time>
      </trkpt>
      <trkpt lat="43.419" lon="6.66519">
        <ele>45.6</ele>
        <time>2020-10-04T19:34:10.766Z</time>
      </trkpt>
      <trkpt lat="43.419" lon="6.66519">
        <ele>45.6</ele>
        <time>2020-10-04T19:34:10.766Z</time>
      </trkpt>
      <trkpt lat="43.419" lon="6.66519">
        <ele>45.6</ele>
        <time>2020-10-04T19:34:10.766Z</time>
      </trkpt>
      <trkpt lat="43.419" lon="6.66519">
        <ele>45.6</ele>
        <time>2020-10-04T19:34:10.766Z</time>
      </trkpt>
      <trkpt lat="43.419" lon="6.66519">
        <ele>45.6</ele>
        <time>2020-10-04T19:34:10.766Z</time>
      </trkpt>
      <trkpt lat="43.419" lon="6.66519">
        <ele>45.5</ele>
        <time>2020-10-04T19:34:10.800Z</time>
      </trkpt>
      <trkpt lat="43.41906" lon="6.66511">
        <ele>44.1</ele>
        <time>2020-10-04T19:34:11.428Z</time>
      </trkpt>
      <trkpt lat="43.41925" lon="6.66498">
        <ele>41.3</ele>
        <time>2020-10-04T19:34:13.087Z</time>
      </trkpt>
      <trkpt lat="43.41953" lon="6.6648">
        <ele>37.4</ele>
        <time>2020-10-04T19:34:15.433Z</time>
      </trkpt>
      <trkpt lat="43.41978" lon="6.66469">
        <ele>34.5</ele>
        <time>2020-10-04T19:34:17.479Z</time>
      </trkpt>
      <trkpt lat="43.41999" lon="6.66443">
        <ele>30.2</ele>
        <time>2020-10-04T19:34:19.592Z</time>
      </trkpt>
      <trkpt lat="43.42029" lon="6.66418">
        <ele>27.1</ele>
        <time>2020-10-04T19:34:22.280Z</time>
      </trkpt>
      <trkpt lat="43.42065" lon="6.66417">
        <ele>27</ele>
        <time>2020-10-04T19:34:27.078Z</time>
      </trkpt>
      <trkpt lat="43.42101" lon="6.66415">
        <ele>26.2</ele>
        <time>2020-10-04T19:34:30.825Z</time>
      </trkpt>
      <trkpt lat="43.42137" lon="6.66406">
        <ele>24.7</ele>
        <time>2020-10-04T19:34:34.059Z</time>
      </trkpt>
      <trkpt lat="43.42171" lon="6.66411">
        <ele>23.1</ele>
        <time>2020-10-04T19:34:36.884Z</time>
      </trkpt>
      <trkpt lat="43.42198" lon="6.66422">
        <ele>23.1</ele>
        <time>2020-10-04T19:34:40.698Z</time>
      </trkpt>
      <trkpt lat="43.42226" lon="6.66433">
        <ele>23.8</ele>
        <time>2020-10-04T19:34:45.780Z</time>
      </trkpt>
      <trkpt lat="43.42248" lon="6.66458">
        <ele>26</ele>
        <time>2020-10-04T19:34:54.120Z</time>
      </trkpt>
      <trkpt lat="43.42262" lon="6.66479">
        <ele>27.7</ele>
        <time>2020-10-04T19:35:00.348Z</time>
      </trkpt>
      <trkpt lat="43.42277" lon="6.66493">
        <ele>28.3</ele>
        <time>2020-10-04T19:35:03.883Z</time>
      </trkpt>
      <trkpt lat="43.42288" lon="6.66474">
        <ele>25.6</ele>
        <time>2020-10-04T19:35:05.247Z</time>
      </trkpt>
      <trkpt lat="43.42302" lon="6.66467">
        <ele>24</ele>
        <time>2020-10-04T19:35:06.449Z</time>
      </trkpt>
      <trkpt lat="43.4232" lon="6.66484">
        <ele>24.5</ele>
        <time>2020-10-04T19:35:10.201Z</time>
      </trkpt>
      <trkpt lat="43.42338" lon="6.66505">
        <ele>25.2</ele>
        <time>2020-10-04T19:35:14.664Z</time>
      </trkpt>
      <trkpt lat="43.42362" lon="6.6652">
        <ele>25</ele>
        <time>2020-10-04T19:35:17.939Z</time>
      </trkpt>
      <trkpt lat="43.42388" lon="6.66526">
        <ele>23.5</ele>
        <time>2020-10-04T19:35:19.962Z</time>
      </trkpt>
      <trkpt lat="43.42415" lon="6.66529">
        <ele>21.5</ele>
        <time>2020-10-04T19:35:22.043Z</time>
      </trkpt>
      <trkpt lat="43.42443" lon="6.66527">
        <ele>20.9</ele>
        <time>2020-10-04T19:35:24.958Z</time>
      </trkpt>
      <trkpt lat="43.42469" lon="6.66517">
        <ele>19.8</ele>
        <time>2020-10-04T19:35:27.333Z</time>
      </trkpt>
      <trkpt lat="43.42494" lon="6.66501">
        <ele>18.2</ele>
        <time>2020-10-04T19:35:29.372Z</time>
      </trkpt>
      <trkpt lat="43.42522" lon="6.66488">
        <ele>18.6</ele>
        <time>2020-10-04T19:35:33.995Z</time>
      </trkpt>
      <trkpt lat="43.42548" lon="6.66477">
        <ele>18.7</ele>
        <time>2020-10-04T19:35:37.823Z</time>
      </trkpt>
      <trkpt lat="43.42575" lon="6.66466">
        <ele>18.6</ele>
        <time>2020-10-04T19:35:41.486Z</time>
      </trkpt>
      <trkpt lat="43.42597" lon="6.66451">
        <ele>18.2</ele>
        <time>2020-10-04T19:35:44.343Z</time>
      </trkpt>
      <trkpt lat="43.42594" lon="6.66417">
        <ele>18.5</ele>
        <time>2020-10-04T19:35:48.113Z</time>
      </trkpt>
      <trkpt lat="43.42581" lon="6.66384">
        <ele>18.4</ele>
        <time>2020-10-04T19:35:51.619Z</time>
      </trkpt>
      <trkpt lat="43.42579" lon="6.66351">
        <ele>17.7</ele>
        <time>2020-10-04T19:35:54.019Z</time>
      </trkpt>
      <trkpt lat="43.42595" lon="6.66324">
        <ele>16.9</ele>
        <time>2020-10-04T19:35:56.428Z</time>
      </trkpt>
      <trkpt lat="43.42613" lon="6.66299">
        <ele>17</ele>
        <time>2020-10-04T19:35:59.984Z</time>
      </trkpt>
      <trkpt lat="43.4263" lon="6.66274">
        <ele>16.9</ele>
        <time>2020-10-04T19:36:03.207Z</time>
      </trkpt>
      <trkpt lat="43.42648" lon="6.66245">
        <ele>17</ele>
        <time>2020-10-04T19:36:07.084Z</time>
      </trkpt>
      <trkpt lat="43.42667" lon="6.66218">
        <ele>18</ele>
        <time>2020-10-04T19:36:12.723Z</time>
      </trkpt>
      <trkpt lat="43.42687" lon="6.66193">
        <ele>18.8</ele>
        <time>2020-10-04T19:36:17.830Z</time>
      </trkpt>
      <trkpt lat="43.42712" lon="6.6618">
        <ele>18.8</ele>
        <time>2020-10-04T19:36:21.487Z</time>
      </trkpt>
      <trkpt lat="43.42742" lon="6.66175">
        <ele>18</ele>
        <time>2020-10-04T19:36:24.471Z</time>
      </trkpt>
      <trkpt lat="43.42773" lon="6.66159">
        <ele>18.8</ele>
        <time>2020-10-04T19:36:30.248Z</time>
      </trkpt>
      <trkpt lat="43.42805" lon="6.66137">
        <ele>21.1</ele>
        <time>2020-10-04T19:36:39.762Z</time>
      </trkpt>
      <trkpt lat="43.42835" lon="6.66116">
        <ele>23.4</ele>
        <time>2020-10-04T19:36:48.873Z</time>
      </trkpt>
      <trkpt lat="43.42857" lon="6.66103">
        <ele>23.3</ele>
        <time>2020-10-04T19:36:51.863Z</time>
      </trkpt>
      <trkpt lat="43.42872" lon="6.66088">
        <ele>23.8</ele>
        <time>2020-10-04T19:36:55.226Z</time>
      </trkpt>
      <trkpt lat="43.42897" lon="6.66071">
        <ele>24.1</ele>
        <time>2020-10-04T19:36:59.504Z</time>
      </trkpt>
      <trkpt lat="43.42904" lon="6.66061">
        <ele>24.8</ele>
        <time>2020-10-04T19:37:02.291Z</time>
      </trkpt>
      <trkpt lat="43.42892" lon="6.66057">
        <ele>26.3</ele>
        <time>2020-10-04T19:37:07.834Z</time>
      </trkpt>
      <trkpt lat="43.42877" lon="6.66042">
        <ele>29.6</ele>
        <time>2020-10-04T19:37:17.728Z</time>
      </trkpt>
      <trkpt lat="43.42868" lon="6.66032">
        <ele>31.7</ele>
        <time>2020-10-04T19:37:23.498Z</time>
      </trkpt>
      <trkpt lat="43.42862" lon="6.66024">
        <ele>33.5</ele>
        <time>2020-10-04T19:37:28.246Z</time>
      </trkpt>
      <trkpt lat="43.42857" lon="6.66013">
        <ele>35.6</ele>
        <time>2020-10-04T19:37:33.155Z</time>
      </trkpt>
      <trkpt lat="43.42852" lon="6.66001">
        <ele>37.8</ele>
        <time>2020-10-04T19:37:38.254Z</time>
      </trkpt>
      <trkpt lat="43.42848" lon="6.65991">
        <ele>39.1</ele>
        <time>2020-10-04T19:37:42.919Z</time>
      </trkpt>
      <trkpt lat="43.42843" lon="6.65982">
        <ele>40.2</ele>
        <time>2020-10-04T19:37:46.851Z</time>
      </trkpt>
      <trkpt lat="43.42839" lon="6.65974">
        <ele>41.3</ele>
        <time>2020-10-04T19:37:50.880Z</time>
      </trkpt>
      <trkpt lat="43.42834" lon="6.65967">
        <ele>42.3</ele>
        <time>2020-10-04T19:37:54.555Z</time>
      </trkpt>
      <trkpt lat="43.42829" lon="6.65961">
        <ele>42.6</ele>
        <time>2020-10-04T19:37:56.083Z</time>
      </trkpt>
      <trkpt lat="43.42826" lon="6.65956">
        <ele>42.8</ele>
        <time>2020-10-04T19:37:57.145Z</time>
      </trkpt>
      <trkpt lat="43.42823" lon="6.65951">
        <ele>43.1</ele>
        <time>2020-10-04T19:37:58.354Z</time>
      </trkpt>
      <trkpt lat="43.42822" lon="6.65945">
        <ele>43.5</ele>
        <time>2020-10-04T19:37:59.826Z</time>
      </trkpt>
      <trkpt lat="43.4282" lon="6.65938">
        <ele>44</ele>
        <time>2020-10-04T19:38:01.603Z</time>
      </trkpt>
      <trkpt lat="43.42818" lon="6.65933">
        <ele>44.3</ele>
        <time>2020-10-04T19:38:02.744Z</time>
      </trkpt>
      <trkpt lat="43.42815" lon="6.65926">
        <ele>44.8</ele>
        <time>2020-10-04T19:38:04.562Z</time>
      </trkpt>
      <trkpt lat="43.42811" lon="6.65923">
        <ele>44.9</ele>
        <time>2020-10-04T19:38:05.361Z</time>
      </trkpt>
      <trkpt lat="43.42806" lon="6.65921">
        <ele>44.9</ele>
        <time>2020-10-04T19:38:06.054Z</time>
      </trkpt>
      <trkpt lat="43.42799" lon="6.65922">
        <ele>44.7</ele>
        <time>2020-10-04T19:38:06.762Z</time>
      </trkpt>
      <trkpt lat="43.42795" lon="6.65924">
        <ele>44.4</ele>
        <time>2020-10-04T19:38:07.086Z</time>
      </trkpt>
      <trkpt lat="43.42791" lon="6.65929">
        <ele>43.8</ele>
        <time>2020-10-04T19:38:07.472Z</time>
      </trkpt>
      <trkpt lat="43.4279" lon="6.6594">
        <ele>42.7</ele>
        <time>2020-10-04T19:38:08.091Z</time>
      </trkpt>
      <trkpt lat="43.4279" lon="6.6595">
        <ele>41.7</ele>
        <time>2020-10-04T19:38:08.653Z</time>
      </trkpt>
      <trkpt lat="43.42787" lon="6.65958">
        <ele>40.8</ele>
        <time>2020-10-04T19:38:09.189Z</time>
      </trkpt>
      <trkpt lat="43.42782" lon="6.65958">
        <ele>40.6</ele>
        <time>2020-10-04T19:38:09.536Z</time>
      </trkpt>
      <trkpt lat="43.4278" lon="6.65954">
        <ele>40.9</ele>
        <time>2020-10-04T19:38:10.652Z</time>
      </trkpt>
      <trkpt lat="43.42777" lon="6.65947">
        <ele>41.5</ele>
        <time>2020-10-04T19:38:12.783Z</time>
      </trkpt>
      <trkpt lat="43.42773" lon="6.65939">
        <ele>42.2</ele>
        <time>2020-10-04T19:38:15.275Z</time>
      </trkpt>
      <trkpt lat="43.42769" lon="6.65928">
        <ele>43.2</ele>
        <time>2020-10-04T19:38:18.860Z</time>
      </trkpt>
      <trkpt lat="43.42766" lon="6.65917">
        <ele>44.4</ele>
        <time>2020-10-04T19:38:23.545Z</time>
      </trkpt>
      <trkpt lat="43.42763" lon="6.6591">
        <ele>44.8</ele>
        <time>2020-10-04T19:38:25.093Z</time>
      </trkpt>
      <trkpt lat="43.42759" lon="6.65902">
        <ele>45.3</ele>
        <time>2020-10-04T19:38:27.002Z</time>
      </trkpt>
      <trkpt lat="43.42754" lon="6.65896">
        <ele>45.8</ele>
        <time>2020-10-04T19:38:28.962Z</time>
      </trkpt>
      <trkpt lat="43.42751" lon="6.65886">
        <ele>46.5</ele>
        <time>2020-10-04T19:38:31.460Z</time>
      </trkpt>
      <trkpt lat="43.42746" lon="6.65878">
        <ele>47</ele>
        <time>2020-10-04T19:38:33.594Z</time>
      </trkpt>
      <trkpt lat="43.42739" lon="6.65869">
        <ele>47.4</ele>
        <time>2020-10-04T19:38:35.684Z</time>
      </trkpt>
      <trkpt lat="43.42735" lon="6.65861">
        <ele>47.8</ele>
        <time>2020-10-04T19:38:37.420Z</time>
      </trkpt>
      <trkpt lat="43.42731" lon="6.65851">
        <ele>48.4</ele>
        <time>2020-10-04T19:38:39.748Z</time>
      </trkpt>
      <trkpt lat="43.42723" lon="6.6585">
        <ele>47.9</ele>
        <time>2020-10-04T19:38:40.363Z</time>
      </trkpt>
      <trkpt lat="43.42716" lon="6.65855">
        <ele>47.1</ele>
        <time>2020-10-04T19:38:40.926Z</time>
      </trkpt>
      <trkpt lat="43.42707" lon="6.65855">
        <ele>46.6</ele>
        <time>2020-10-04T19:38:41.672Z</time>
      </trkpt>
      <trkpt lat="43.42696" lon="6.65842">
        <ele>47</ele>
        <time>2020-10-04T19:38:44.342Z</time>
      </trkpt>
      <trkpt lat="43.42691" lon="6.65827">
        <ele>48</ele>
        <time>2020-10-04T19:38:47.969Z</time>
      </trkpt>
      <trkpt lat="43.4269" lon="6.65807">
        <ele>49.8</ele>
        <time>2020-10-04T19:38:54.670Z</time>
      </trkpt>
      <trkpt lat="43.42688" lon="6.65787">
        <ele>51.6</ele>
        <time>2020-10-04T19:39:01.241Z</time>
      </trkpt>
      <trkpt lat="43.42686" lon="6.65767">
        <ele>53.4</ele>
        <time>2020-10-04T19:39:07.943Z</time>
      </trkpt>
      <trkpt lat="43.42684" lon="6.65748">
        <ele>55.3</ele>
        <time>2020-10-04T19:39:15.266Z</time>
      </trkpt>
      <trkpt lat="43.4268" lon="6.65729">
        <ele>57.4</ele>
        <time>2020-10-04T19:39:22.778Z</time>
      </trkpt>
      <trkpt lat="43.42675" lon="6.65711">
        <ele>59.5</ele>
        <time>2020-10-04T19:39:30.190Z</time>
      </trkpt>
      <trkpt lat="43.42672" lon="6.65697">
        <ele>61.2</ele>
        <time>2020-10-04T19:39:35.520Z</time>
      </trkpt>
      <trkpt lat="43.42673" lon="6.65686">
        <ele>62.5</ele>
        <time>2020-10-04T19:39:39.730Z</time>
      </trkpt>
      <trkpt lat="43.42672" lon="6.65676">
        <ele>63.7</ele>
        <time>2020-10-04T19:39:43.752Z</time>
      </trkpt>
      <trkpt lat="43.42671" lon="6.65666">
        <ele>64.9</ele>
        <time>2020-10-04T19:39:47.564Z</time>
      </trkpt>
      <trkpt lat="43.4267" lon="6.65657">
        <ele>65.6</ele>
        <time>2020-10-04T19:39:50.050Z</time>
      </trkpt>
      <trkpt lat="43.42669" lon="6.65647">
        <ele>66.3</ele>
        <time>2020-10-04T19:39:52.537Z</time>
      </trkpt>
      <trkpt lat="43.42667" lon="6.6564">
        <ele>66.9</ele>
        <time>2020-10-04T19:39:54.682Z</time>
      </trkpt>
      <trkpt lat="43.42663" lon="6.6563">
        <ele>67.5</ele>
        <time>2020-10-04T19:39:57.002Z</time>
      </trkpt>
      <trkpt lat="43.42657" lon="6.65623">
        <ele>67.9</ele>
        <time>2020-10-04T19:39:58.891Z</time>
      </trkpt>
      <trkpt lat="43.42651" lon="6.65615">
        <ele>68.3</ele>
        <time>2020-10-04T19:40:00.914Z</time>
      </trkpt>
      <trkpt lat="43.42646" lon="6.65606">
        <ele>68.9</ele>
        <time>2020-10-04T19:40:03.184Z</time>
      </trkpt>
      <trkpt lat="43.42641" lon="6.65597">
        <ele>69.5</ele>
        <time>2020-10-04T19:40:05.544Z</time>
      </trkpt>
      <trkpt lat="43.42635" lon="6.65589">
        <ele>70.2</ele>
        <time>2020-10-04T19:40:08.083Z</time>
      </trkpt>
      <trkpt lat="43.42632" lon="6.65581">
        <ele>70.7</ele>
        <time>2020-10-04T19:40:09.940Z</time>
      </trkpt>
      <trkpt lat="43.42628" lon="6.65574">
        <ele>71.2</ele>
        <time>2020-10-04T19:40:11.856Z</time>
      </trkpt>
      <trkpt lat="43.42625" lon="6.65566">
        <ele>71.7</ele>
        <time>2020-10-04T19:40:13.762Z</time>
      </trkpt>
      <trkpt lat="43.42618" lon="6.65554">
        <ele>72.5</ele>
        <time>2020-10-04T19:40:16.845Z</time>
      </trkpt>
      <trkpt lat="43.42611" lon="6.65542">
        <ele>73.5</ele>
        <time>2020-10-04T19:40:20.433Z</time>
      </trkpt>
      <trkpt lat="43.4262" lon="6.6553">
        <ele>74.1</ele>
        <time>2020-10-04T19:40:23.373Z</time>
      </trkpt>
      <trkpt lat="43.42633" lon="6.65521">
        <ele>74.3</ele>
        <time>2020-10-04T19:40:25.646Z</time>
      </trkpt>
      <trkpt lat="43.42647" lon="6.65504">
        <ele>74.8</ele>
        <time>2020-10-04T19:40:29.024Z</time>
      </trkpt>
      <trkpt lat="43.4266" lon="6.65484">
        <ele>74.9</ele>
        <time>2020-10-04T19:40:31.828Z</time>
      </trkpt>
      <trkpt lat="43.42676" lon="6.65469">
        <ele>74.8</ele>
        <time>2020-10-04T19:40:34.205Z</time>
      </trkpt>
      <trkpt lat="43.42696" lon="6.65465">
        <ele>74.4</ele>
        <time>2020-10-04T19:40:36.440Z</time>
      </trkpt>
      <trkpt lat="43.4271" lon="6.65452">
        <ele>74.5</ele>
        <time>2020-10-04T19:40:38.845Z</time>
      </trkpt>
      <trkpt lat="43.42716" lon="6.65442">
        <ele>74.7</ele>
        <time>2020-10-04T19:40:40.420Z</time>
      </trkpt>
      <trkpt lat="43.42713" lon="6.65428">
        <ele>75.4</ele>
        <time>2020-10-04T19:40:43.257Z</time>
      </trkpt>
      <trkpt lat="43.42703" lon="6.65419">
        <ele>76.1</ele>
        <time>2020-10-04T19:40:46.318Z</time>
      </trkpt>
      <trkpt lat="43.4269" lon="6.65411">
        <ele>76.4</ele>
        <time>2020-10-04T19:40:48.728Z</time>
      </trkpt>
      <trkpt lat="43.42673" lon="6.65403">
        <ele>77</ele>
        <time>2020-10-04T19:40:52.255Z</time>
      </trkpt>
      <trkpt lat="43.42651" lon="6.65399">
        <ele>77.9</ele>
        <time>2020-10-04T19:40:57.033Z</time>
      </trkpt>
      <trkpt lat="43.42631" lon="6.65398">
        <ele>78.9</ele>
        <time>2020-10-04T19:41:01.843Z</time>
      </trkpt>
      <trkpt lat="43.42614" lon="6.65396">
        <ele>79.8</ele>
        <time>2020-10-04T19:41:05.996Z</time>
      </trkpt>
      <trkpt lat="43.42598" lon="6.6539">
        <ele>80.9</ele>
        <time>2020-10-04T19:41:10.471Z</time>
      </trkpt>
      <trkpt lat="43.42582" lon="6.65384">
        <ele>82.2</ele>
        <time>2020-10-04T19:41:15.303Z</time>
      </trkpt>
      <trkpt lat="43.42569" lon="6.65377">
        <ele>84.4</ele>
        <time>2020-10-04T19:41:22.874Z</time>
      </trkpt>
      <trkpt lat="43.42554" lon="6.6537">
        <ele>86.7</ele>
        <time>2020-10-04T19:41:30.858Z</time>
      </trkpt>
      <trkpt lat="43.42541" lon="6.65364">
        <ele>88.7</ele>
        <time>2020-10-04T19:41:38.130Z</time>
      </trkpt>
      <trkpt lat="43.42528" lon="6.6536">
        <ele>90.8</ele>
        <time>2020-10-04T19:41:45.303Z</time>
      </trkpt>
      <trkpt lat="43.4252" lon="6.65355">
        <ele>92.1</ele>
        <time>2020-10-04T19:41:49.841Z</time>
      </trkpt>
      <trkpt lat="43.42512" lon="6.6535">
        <ele>93.4</ele>
        <time>2020-10-04T19:41:54.475Z</time>
      </trkpt>
      <trkpt lat="43.42502" lon="6.65338">
        <ele>95.4</ele>
        <time>2020-10-04T19:42:01.144Z</time>
      </trkpt>
      <trkpt lat="43.42493" lon="6.65329">
        <ele>95.9</ele>
        <time>2020-10-04T19:42:03.770Z</time>
      </trkpt>
      <trkpt lat="43.42488" lon="6.6532">
        <ele>96</ele>
        <time>2020-10-04T19:42:05.003Z</time>
      </trkpt>
      <trkpt lat="43.42484" lon="6.6531">
        <ele>96.2</ele>
        <time>2020-10-04T19:42:06.485Z</time>
      </trkpt>
      <trkpt lat="43.4248" lon="6.65304">
        <ele>96.3</ele>
        <time>2020-10-04T19:42:07.459Z</time>
      </trkpt>
      <trkpt lat="43.42477" lon="6.65299">
        <ele>96.4</ele>
        <time>2020-10-04T19:42:08.281Z</time>
      </trkpt>
      <trkpt lat="43.42474" lon="6.65293">
        <ele>96.5</ele>
        <time>2020-10-04T19:42:09.145Z</time>
      </trkpt>
      <trkpt lat="43.4247" lon="6.65287">
        <ele>96.6</ele>
        <time>2020-10-04T19:42:10.140Z</time>
      </trkpt>
      <trkpt lat="43.42465" lon="6.65281">
        <ele>96.7</ele>
        <time>2020-10-04T19:42:11.158Z</time>
      </trkpt>
      <trkpt lat="43.4246" lon="6.65277">
        <ele>96.7</ele>
        <time>2020-10-04T19:42:11.949Z</time>
      </trkpt>
      <trkpt lat="43.42452" lon="6.65268">
        <ele>96.9</ele>
        <time>2020-10-04T19:42:13.664Z</time>
      </trkpt>
      <trkpt lat="43.42445" lon="6.65256">
        <ele>97.1</ele>
        <time>2020-10-04T19:42:15.507Z</time>
      </trkpt>
      <trkpt lat="43.42438" lon="6.65247">
        <ele>97.2</ele>
        <time>2020-10-04T19:42:16.941Z</time>
      </trkpt>
      <trkpt lat="43.4243" lon="6.65238">
        <ele>97</ele>
        <time>2020-10-04T19:42:18.002Z</time>
      </trkpt>
      <trkpt lat="43.42425" lon="6.65229">
        <ele>96.8</ele>
        <time>2020-10-04T19:42:18.905Z</time>
      </trkpt>
      <trkpt lat="43.4242" lon="6.6522">
        <ele>96.7</ele>
        <time>2020-10-04T19:42:19.889Z</time>
      </trkpt>
      <trkpt lat="43.42416" lon="6.65208">
        <ele>96.4</ele>
        <time>2020-10-04T19:42:20.778Z</time>
      </trkpt>
      <trkpt lat="43.4241" lon="6.65195">
        <ele>95.6</ele>
        <time>2020-10-04T19:42:21.680Z</time>
      </trkpt>
      <trkpt lat="43.42399" lon="6.65182">
        <ele>94.6</ele>
        <time>2020-10-04T19:42:22.783Z</time>
      </trkpt>
      <trkpt lat="43.42385" lon="6.65167">
        <ele>93.7</ele>
        <time>2020-10-04T19:42:24.200Z</time>
      </trkpt>
      <trkpt lat="43.42374" lon="6.65148">
        <ele>93.9</ele>
        <time>2020-10-04T19:42:26.880Z</time>
      </trkpt>
      <trkpt lat="43.42364" lon="6.65125">
        <ele>94.8</ele>
        <time>2020-10-04T19:42:31.355Z</time>
      </trkpt>
      <trkpt lat="43.42352" lon="6.65105">
        <ele>95.7</ele>
        <time>2020-10-04T19:42:35.821Z</time>
      </trkpt>
      <trkpt lat="43.42342" lon="6.65086">
        <ele>96.9</ele>
        <time>2020-10-04T19:42:40.574Z</time>
      </trkpt>
      <trkpt lat="43.42332" lon="6.65068">
        <ele>98.7</ele>
        <time>2020-10-04T19:42:47.046Z</time>
      </trkpt>
      <trkpt lat="43.42324" lon="6.65053">
        <ele>100.7</ele>
        <time>2020-10-04T19:42:54.265Z</time>
      </trkpt>
      <trkpt lat="43.42316" lon="6.65039">
        <ele>102.4</ele>
        <time>2020-10-04T19:43:00.915Z</time>
      </trkpt>
      <trkpt lat="43.42308" lon="6.65025">
        <ele>104</ele>
        <time>2020-10-04T19:43:06.795Z</time>
      </trkpt>
      <trkpt lat="43.42299" lon="6.65013">
        <ele>105.3</ele>
        <time>2020-10-04T19:43:11.420Z</time>
      </trkpt>
      <trkpt lat="43.42294" lon="6.64999">
        <ele>106.6</ele>
        <time>2020-10-04T19:43:16.103Z</time>
      </trkpt>
      <trkpt lat="43.42289" lon="6.64984">
        <ele>108.6</ele>
        <time>2020-10-04T19:43:22.313Z</time>
      </trkpt>
      <trkpt lat="43.42283" lon="6.64971">
        <ele>110.3</ele>
        <time>2020-10-04T19:43:28.058Z</time>
      </trkpt>
      <trkpt lat="43.42275" lon="6.6496">
        <ele>111.8</ele>
        <time>2020-10-04T19:43:33.894Z</time>
      </trkpt>
      <trkpt lat="43.42263" lon="6.64951">
        <ele>112.9</ele>
        <time>2020-10-04T19:43:38.008Z</time>
      </trkpt>
      <trkpt lat="43.42249" lon="6.64951">
        <ele>112.8</ele>
        <time>2020-10-04T19:43:39.732Z</time>
      </trkpt>
      <trkpt lat="43.42239" lon="6.6496">
        <ele>111.2</ele>
        <time>2020-10-04T19:43:40.621Z</time>
      </trkpt>
      <trkpt lat="43.42227" lon="6.64971">
        <ele>109.2</ele>
        <time>2020-10-04T19:43:41.734Z</time>
      </trkpt>
      <trkpt lat="43.42213" lon="6.64986">
        <ele>106.6</ele>
        <time>2020-10-04T19:43:43.077Z</time>
      </trkpt>
      <trkpt lat="43.422" lon="6.65003">
        <ele>103.7</ele>
        <time>2020-10-04T19:43:44.478Z</time>
      </trkpt>
      <trkpt lat="43.42183" lon="6.65005">
        <ele>102.5</ele>
        <time>2020-10-04T19:43:45.820Z</time>
      </trkpt>
      <trkpt lat="43.42169" lon="6.64984">
        <ele>104.2</ele>
        <time>2020-10-04T19:43:52.040Z</time>
      </trkpt>
      <trkpt lat="43.42154" lon="6.64964">
        <ele>105.7</ele>
        <time>2020-10-04T19:43:57.828Z</time>
      </trkpt>
      <trkpt lat="43.42143" lon="6.6494">
        <ele>107.8</ele>
        <time>2020-10-04T19:44:05.287Z</time>
      </trkpt>
      <trkpt lat="43.42131" lon="6.64917">
        <ele>109.5</ele>
        <time>2020-10-04T19:44:11.514Z</time>
      </trkpt>
      <trkpt lat="43.42122" lon="6.64893">
        <ele>112</ele>
        <time>2020-10-04T19:44:21.056Z</time>
      </trkpt>
      <trkpt lat="43.42105" lon="6.64894">
        <ele>109.9</ele>
        <time>2020-10-04T19:44:22.421Z</time>
      </trkpt>
      <trkpt lat="43.42087" lon="6.64905">
        <ele>106.8</ele>
        <time>2020-10-04T19:44:23.897Z</time>
      </trkpt>
      <trkpt lat="43.42068" lon="6.64915">
        <ele>103.1</ele>
        <time>2020-10-04T19:44:25.447Z</time>
      </trkpt>
      <trkpt lat="43.4202" lon="6.64874">
        <ele>100.2</ele>
        <time>2020-10-04T19:44:29.994Z</time>
      </trkpt>
      <trkpt lat="43.41991" lon="6.64845">
        <ele>97.3</ele>
        <time>2020-10-04T19:44:32.726Z</time>
      </trkpt>
      <trkpt lat="43.41951" lon="6.64802">
        <ele>92.7</ele>
        <time>2020-10-04T19:44:36.638Z</time>
      </trkpt>
      <trkpt lat="43.41912" lon="6.64776">
        <ele>86.3</ele>
        <time>2020-10-04T19:44:39.896Z</time>
      </trkpt>
      <trkpt lat="43.41895" lon="6.64738">
        <ele>86.6</ele>
        <time>2020-10-04T19:44:44.699Z</time>
      </trkpt>
      <trkpt lat="43.41894" lon="6.64709">
        <ele>88.1</ele>
        <time>2020-10-04T19:44:50.543Z</time>
      </trkpt>
      <trkpt lat="43.41906" lon="6.64658">
        <ele>93.2</ele>
        <time>2020-10-04T19:45:10.247Z</time>
      </trkpt>
      <trkpt lat="43.41929" lon="6.6461">
        <ele>100.3</ele>
        <time>2020-10-04T19:45:32.401Z</time>
      </trkpt>
      <trkpt lat="43.41947" lon="6.64592">
        <ele>102.9</ele>
        <time>2020-10-04T19:45:42.048Z</time>
      </trkpt>
      <trkpt lat="43.41962" lon="6.64574">
        <ele>105.5</ele>
        <time>2020-10-04T19:45:51.908Z</time>
      </trkpt>
      <trkpt lat="43.41982" lon="6.64516">
        <ele>113.4</ele>
        <time>2020-10-04T19:46:16.486Z</time>
      </trkpt>
      <trkpt lat="43.4196" lon="6.64511">
        <ele>114</ele>
        <time>2020-10-04T19:46:20.605Z</time>
      </trkpt>
      <trkpt lat="43.41929" lon="6.64509">
        <ele>114.4</ele>
        <time>2020-10-04T19:46:25.425Z</time>
      </trkpt>
      <trkpt lat="43.41898" lon="6.64516">
        <ele>112</ele>
        <time>2020-10-04T19:46:27.850Z</time>
      </trkpt>
      <trkpt lat="43.41878" lon="6.64487">
        <ele>115.4</ele>
        <time>2020-10-04T19:46:40.279Z</time>
      </trkpt>
      <trkpt lat="43.41821" lon="6.64531">
        <ele>104.1</ele>
        <time>2020-10-04T19:46:45.276Z</time>
      </trkpt>
      <trkpt lat="43.41781" lon="6.6453">
        <ele>97.6</ele>
        <time>2020-10-04T19:46:48.377Z</time>
      </trkpt>
      <trkpt lat="43.41729" lon="6.64487">
        <ele>98.1</ele>
        <time>2020-10-04T19:46:57.315Z</time>
      </trkpt>
      <trkpt lat="43.4171" lon="6.64455">
        <ele>101.6</ele>
        <time>2020-10-04T19:47:10.003Z</time>
      </trkpt>
      <trkpt lat="43.41682" lon="6.64459">
        <ele>97.4</ele>
        <time>2020-10-04T19:47:12.137Z</time>
      </trkpt>
      <trkpt lat="43.41673" lon="6.64449">
        <ele>97.8</ele>
        <time>2020-10-04T19:47:14.519Z</time>
      </trkpt>
      <trkpt lat="43.41656" lon="6.64445">
        <ele>97.1</ele>
        <time>2020-10-04T19:47:15.951Z</time>
      </trkpt>
      <trkpt lat="43.41643" lon="6.64455">
        <ele>95.5</ele>
        <time>2020-10-04T19:47:17.074Z</time>
      </trkpt>
      <trkpt lat="43.41612" lon="6.64433">
        <ele>95.5</ele>
        <time>2020-10-04T19:47:21.947Z</time>
      </trkpt>
      <trkpt lat="43.41569" lon="6.64406">
        <ele>95.3</ele>
        <time>2020-10-04T19:47:27.889Z</time>
      </trkpt>
      <trkpt lat="43.41527" lon="6.64394">
        <ele>96.8</ele>
        <time>2020-10-04T19:47:36.600Z</time>
      </trkpt>
      <trkpt lat="43.415" lon="6.64381">
        <ele>96.6</ele>
        <time>2020-10-04T19:47:40.078Z</time>
      </trkpt>
      <trkpt lat="43.41477" lon="6.64358">
        <ele>100.8</ele>
        <time>2020-10-04T19:47:54.899Z</time>
      </trkpt>
      <trkpt lat="43.41467" lon="6.64334">
        <ele>102.8</ele>
        <time>2020-10-04T19:48:02.007Z</time>
      </trkpt>
      <trkpt lat="43.41461" lon="6.64308">
        <ele>103.5</ele>
        <time>2020-10-04T19:48:05.992Z</time>
      </trkpt>
      <trkpt lat="43.41463" lon="6.64288">
        <ele>102.6</ele>
        <time>2020-10-04T19:48:07.107Z</time>
      </trkpt>
      <trkpt lat="43.41462" lon="6.64262">
        <ele>102.2</ele>
        <time>2020-10-04T19:48:09.115Z</time>
      </trkpt>
      <trkpt lat="43.41463" lon="6.64238">
        <ele>102.7</ele>
        <time>2020-10-04T19:48:12.312Z</time>
      </trkpt>
      <trkpt lat="43.41459" lon="6.64214">
        <ele>104.6</ele>
        <time>2020-10-04T19:48:19.070Z</time>
      </trkpt>
      <trkpt lat="43.41443" lon="6.64227">
        <ele>105.1</ele>
        <time>2020-10-04T19:48:22.396Z</time>
      </trkpt>
      <trkpt lat="43.41423" lon="6.64236">
        <ele>106.8</ele>
        <time>2020-10-04T19:48:28.649Z</time>
      </trkpt>
      <trkpt lat="43.41296" lon="6.64141">
        <ele>112.7</ele>
        <time>2020-10-04T19:49:00.209Z</time>
      </trkpt>
      <trkpt lat="43.41135" lon="6.64097">
        <ele>115.8</ele>
        <time>2020-10-04T19:49:27.265Z</time>
      </trkpt>
      <trkpt lat="43.41039" lon="6.64087">
        <ele>120</ele>
        <time>2020-10-04T19:49:49.156Z</time>
      </trkpt>
      <trkpt lat="43.41024" lon="6.64085">
        <ele>121</ele>
        <time>2020-10-04T19:49:53.258Z</time>
      </trkpt>
      <trkpt lat="43.40986" lon="6.64079">
        <ele>124.8</ele>
        <time>2020-10-04T19:50:06.753Z</time>
      </trkpt>
      <trkpt lat="43.40948" lon="6.64046">
        <ele>132.7</ele>
        <time>2020-10-04T19:50:30.665Z</time>
      </trkpt>
      <trkpt lat="43.40904" lon="6.64042">
        <ele>137</ele>
        <time>2020-10-04T19:50:45.950Z</time>
      </trkpt>
      <trkpt lat="43.40822" lon="6.64066">
        <ele>134.6</ele>
        <time>2020-10-04T19:50:54.179Z</time>
      </trkpt>
      <trkpt lat="43.40761" lon="6.64081">
        <ele>134.8</ele>
        <time>2020-10-04T19:51:02.873Z</time>
      </trkpt>
      <trkpt lat="43.40729" lon="6.64059">
        <ele>139.9</ele>
        <time>2020-10-04T19:51:21.615Z</time>
      </trkpt>
      <trkpt lat="43.40674" lon="6.63978">
        <ele>161.4</ele>
        <time>2020-10-04T19:52:04.322Z</time>
      </trkpt>
      <trkpt lat="43.40664" lon="6.63989">
        <ele>162.5</ele>
        <time>2020-10-04T19:52:08.339Z</time>
      </trkpt>
      <trkpt lat="43.40663" lon="6.64021">
        <ele>157.7</ele>
        <time>2020-10-04T19:52:10.132Z</time>
      </trkpt>
      <trkpt lat="43.40652" lon="6.64038">
        <ele>155.9</ele>
        <time>2020-10-04T19:52:11.356Z</time>
      </trkpt>
      <trkpt lat="43.40606" lon="6.64048">
        <ele>159</ele>
        <time>2020-10-04T19:52:23.843Z</time>
      </trkpt>
      <trkpt lat="43.40558" lon="6.64033">
        <ele>167.2</ele>
        <time>2020-10-04T19:52:49.927Z</time>
      </trkpt>
      <trkpt lat="43.40444" lon="6.64042">
        <ele>173.6</ele>
        <time>2020-10-04T19:53:18.288Z</time>
      </trkpt>
      <trkpt lat="43.40383" lon="6.64042">
        <ele>176.3</ele>
        <time>2020-10-04T19:53:32.286Z</time>
      </trkpt>
      <trkpt lat="43.4033" lon="6.64048">
        <ele>177.5</ele>
        <time>2020-10-04T19:53:41.457Z</time>
      </trkpt>
      <trkpt lat="43.4028" lon="6.64046">
        <ele>180.6</ele>
        <time>2020-10-04T19:53:54.391Z</time>
      </trkpt>
      <trkpt lat="43.4023" lon="6.64048">
        <ele>186.6</ele>
        <time>2020-10-04T19:54:16.464Z</time>
      </trkpt>
      <trkpt lat="43.4019" lon="6.64031">
        <ele>199.7</ele>
        <time>2020-10-04T19:54:38.830Z</time>
      </trkpt>
      <trkpt lat="43.40149" lon="6.64066">
        <ele>198.1</ele>
        <time>2020-10-04T19:54:43.279Z</time>
      </trkpt>
      <trkpt lat="43.40085" lon="6.64103">
        <ele>195.1</ele>
        <time>2020-10-04T19:54:49.278Z</time>
      </trkpt>
      <trkpt lat="43.40052" lon="6.64127">
        <ele>188.3</ele>
        <time>2020-10-04T19:54:52.120Z</time>
      </trkpt>
      <trkpt lat="43.40039" lon="6.64162">
        <ele>183.5</ele>
        <time>2020-10-04T19:54:54.337Z</time>
      </trkpt>
      <trkpt lat="43.40001" lon="6.64153">
        <ele>179.2</ele>
        <time>2020-10-04T19:54:57.251Z</time>
      </trkpt>
      <trkpt lat="43.39969" lon="6.64132">
        <ele>176.5</ele>
        <time>2020-10-04T19:55:00.000Z</time>
      </trkpt>
      <trkpt lat="43.39944" lon="6.64105">
        <ele>176.7</ele>
        <time>2020-10-04T19:55:04.508Z</time>
      </trkpt>
      <trkpt lat="43.39888" lon="6.64053">
        <ele>185.7</ele>
        <time>2020-10-04T19:55:39.834Z</time>
      </trkpt>
      <trkpt lat="43.3982" lon="6.64074">
        <ele>179.1</ele>
        <time>2020-10-04T19:55:45.168Z</time>
      </trkpt>
      <trkpt lat="43.39742" lon="6.64057">
        <ele>179.4</ele>
        <time>2020-10-04T19:55:56.332Z</time>
      </trkpt>
      <trkpt lat="43.39699" lon="6.64051">
        <ele>175.9</ele>
        <time>2020-10-04T19:55:59.697Z</time>
      </trkpt>
      <trkpt lat="43.39619" lon="6.64012">
        <ele>174.9</ele>
        <time>2020-10-04T19:56:09.811Z</time>
      </trkpt>
      <trkpt lat="43.39603" lon="6.63985">
        <ele>180.6</ele>
        <time>2020-10-04T19:56:23.400Z</time>
      </trkpt>
      <trkpt lat="43.39594" lon="6.6395">
        <ele>190.7</ele>
        <time>2020-10-04T19:56:37.558Z</time>
      </trkpt>
      <trkpt lat="43.39582" lon="6.63935">
        <ele>195.4</ele>
        <time>2020-10-04T19:56:45.981Z</time>
      </trkpt>
      <trkpt lat="43.39558" lon="6.63928">
        <ele>197.5</ele>
        <time>2020-10-04T19:56:53.599Z</time>
      </trkpt>
      <trkpt lat="43.39518" lon="6.63961">
        <ele>188.2</ele>
        <time>2020-10-04T19:56:57.180Z</time>
      </trkpt>
      <trkpt lat="43.39502" lon="6.63964">
        <ele>187.3</ele>
        <time>2020-10-04T19:56:58.468Z</time>
      </trkpt>
      <trkpt lat="43.3948" lon="6.63951">
        <ele>193.9</ele>
        <time>2020-10-04T19:57:11.045Z</time>
      </trkpt>
      <trkpt lat="43.39463" lon="6.63941">
        <ele>198.6</ele>
        <time>2020-10-04T19:57:20.643Z</time>
      </trkpt>
      <trkpt lat="43.39434" lon="6.63945">
        <ele>201.3</ele>
        <time>2020-10-04T19:57:30.277Z</time>
      </trkpt>
      <trkpt lat="43.39406" lon="6.63942">
        <ele>205.2</ele>
        <time>2020-10-04T19:57:45.484Z</time>
      </trkpt>
      <trkpt lat="43.39379" lon="6.63933">
        <ele>209.3</ele>
        <time>2020-10-04T19:57:59.920Z</time>
      </trkpt>
      <trkpt lat="43.39325" lon="6.63944">
        <ele>211.9</ele>
        <time>2020-10-04T19:58:12.857Z</time>
      </trkpt>
      <trkpt lat="43.39299" lon="6.63958">
        <ele>209.6</ele>
        <time>2020-10-04T19:58:14.955Z</time>
      </trkpt>
      <trkpt lat="43.39286" lon="6.63969">
        <ele>208.5</ele>
        <time>2020-10-04T19:58:16.161Z</time>
      </trkpt>
      <trkpt lat="43.39282" lon="6.6398">
        <ele>207.9</ele>
        <time>2020-10-04T19:58:16.807Z</time>
      </trkpt>
      <trkpt lat="43.39279" lon="6.64">
        <ele>207</ele>
        <time>2020-10-04T19:58:17.951Z</time>
      </trkpt>
      <trkpt lat="43.39258" lon="6.64007">
        <ele>205.4</ele>
        <time>2020-10-04T19:58:19.538Z</time>
      </trkpt>
      <trkpt lat="43.39233" lon="6.63997">
        <ele>208</ele>
        <time>2020-10-04T19:58:28.786Z</time>
      </trkpt>
      <trkpt lat="43.39209" lon="6.63976">
        <ele>208</ele>
        <time>2020-10-04T19:58:32.624Z</time>
      </trkpt>
      <trkpt lat="43.39199" lon="6.63969">
        <ele>207.7</ele>
        <time>2020-10-04T19:58:33.790Z</time>
      </trkpt>
      <trkpt lat="43.39192" lon="6.63955">
        <ele>206.5</ele>
        <time>2020-10-04T19:58:34.714Z</time>
      </trkpt>
      <trkpt lat="43.39169" lon="6.63947">
        <ele>205</ele>
        <time>2020-10-04T19:58:36.434Z</time>
      </trkpt>
      <trkpt lat="43.39148" lon="6.63952">
        <ele>202.8</ele>
        <time>2020-10-04T19:58:38.083Z</time>
      </trkpt>
      <trkpt lat="43.39102" lon="6.6397">
        <ele>198.8</ele>
        <time>2020-10-04T19:58:41.769Z</time>
      </trkpt>
      <trkpt lat="43.39084" lon="6.63986">
        <ele>199.5</ele>
        <time>2020-10-04T19:58:45.867Z</time>
      </trkpt>
      <trkpt lat="43.39066" lon="6.64006">
        <ele>199</ele>
        <time>2020-10-04T19:58:48.363Z</time>
      </trkpt>
      <trkpt lat="43.39035" lon="6.6401">
        <ele>193.8</ele>
        <time>2020-10-04T19:58:50.706Z</time>
      </trkpt>
      <trkpt lat="43.39021" lon="6.64006">
        <ele>191</ele>
        <time>2020-10-04T19:58:51.863Z</time>
      </trkpt>
      <trkpt lat="43.38961" lon="6.6402">
        <ele>177.8</ele>
        <time>2020-10-04T19:58:56.499Z</time>
      </trkpt>
      <trkpt lat="43.38947" lon="6.64039">
        <ele>174.4</ele>
        <time>2020-10-04T19:58:57.975Z</time>
      </trkpt>
      <trkpt lat="43.38941" lon="6.64034">
        <ele>172.6</ele>
        <time>2020-10-04T19:58:58.502Z</time>
      </trkpt>
      <trkpt lat="43.38949" lon="6.64013">
        <ele>174.3</ele>
        <time>2020-10-04T19:59:04.543Z</time>
      </trkpt>
      <trkpt lat="43.38986" lon="6.63988">
        <ele>181.3</ele>
        <time>2020-10-04T19:59:26.172Z</time>
      </trkpt>
      <trkpt lat="43.39003" lon="6.63972">
        <ele>181.5</ele>
        <time>2020-10-04T19:59:29.343Z</time>
      </trkpt>
      <trkpt lat="43.39021" lon="6.63954">
        <ele>180.9</ele>
        <time>2020-10-04T19:59:31.520Z</time>
      </trkpt>
      <trkpt lat="43.39031" lon="6.63936">
        <ele>179.3</ele>
        <time>2020-10-04T19:59:32.755Z</time>
      </trkpt>
      <trkpt lat="43.39031" lon="6.63922">
        <ele>176.3</ele>
        <time>2020-10-04T19:59:33.562Z</time>
      </trkpt>
      <trkpt lat="43.39026" lon="6.63914">
        <ele>174</ele>
        <time>2020-10-04T19:59:34.124Z</time>
      </trkpt>
      <trkpt lat="43.39021" lon="6.63903">
        <ele>171.6</ele>
        <time>2020-10-04T19:59:34.858Z</time>
      </trkpt>
      <trkpt lat="43.39016" lon="6.6389">
        <ele>169.1</ele>
        <time>2020-10-04T19:59:35.694Z</time>
      </trkpt>
      <trkpt lat="43.39004" lon="6.63879">
        <ele>165.4</ele>
        <time>2020-10-04T19:59:36.764Z</time>
      </trkpt>
      <trkpt lat="43.38993" lon="6.63876">
        <ele>163.8</ele>
        <time>2020-10-04T19:59:37.627Z</time>
      </trkpt>
      <trkpt lat="43.3898" lon="6.63862">
        <ele>161.5</ele>
        <time>2020-10-04T19:59:38.877Z</time>
      </trkpt>
      <trkpt lat="43.38971" lon="6.63855">
        <ele>160.2</ele>
        <time>2020-10-04T19:59:39.696Z</time>
      </trkpt>
      <trkpt lat="43.38964" lon="6.63846">
        <ele>158.8</ele>
        <time>2020-10-04T19:59:40.407Z</time>
      </trkpt>
      <trkpt lat="43.38952" lon="6.63809">
        <ele>155.4</ele>
        <time>2020-10-04T19:59:42.654Z</time>
      </trkpt>
      <trkpt lat="43.38924" lon="6.63771">
        <ele>149.4</ele>
        <time>2020-10-04T19:59:45.650Z</time>
      </trkpt>
      <trkpt lat="43.38906" lon="6.63756">
        <ele>146</ele>
        <time>2020-10-04T19:59:47.308Z</time>
      </trkpt>
      <trkpt lat="43.38892" lon="6.63736">
        <ele>144.4</ele>
        <time>2020-10-04T19:59:48.826Z</time>
      </trkpt>
      <trkpt lat="43.38878" lon="6.63707">
        <ele>142.5</ele>
        <time>2020-10-04T19:59:50.789Z</time>
      </trkpt>
      <trkpt lat="43.38868" lon="6.63694">
        <ele>141</ele>
        <time>2020-10-04T19:59:51.801Z</time>
      </trkpt>
      <trkpt lat="43.38859" lon="6.63682">
        <ele>139.3</ele>
        <time>2020-10-04T19:59:52.815Z</time>
      </trkpt>
      <trkpt lat="43.38848" lon="6.6367">
        <ele>137.2</ele>
        <time>2020-10-04T19:59:53.866Z</time>
      </trkpt>
      <trkpt lat="43.38832" lon="6.63655">
        <ele>135.5</ele>
        <time>2020-10-04T19:59:55.358Z</time>
      </trkpt>
      <trkpt lat="43.38823" lon="6.63644">
        <ele>135.5</ele>
        <time>2020-10-04T19:59:56.951Z</time>
      </trkpt>
      <trkpt lat="43.38814" lon="6.63636">
        <ele>135.1</ele>
        <time>2020-10-04T19:59:57.928Z</time>
      </trkpt>
      <trkpt lat="43.38804" lon="6.63616">
        <ele>134.3</ele>
        <time>2020-10-04T19:59:59.355Z</time>
      </trkpt>
      <trkpt lat="43.38794" lon="6.63594">
        <ele>132.7</ele>
        <time>2020-10-04T20:00:00.810Z</time>
      </trkpt>
      <trkpt lat="43.38788" lon="6.63575">
        <ele>131.4</ele>
        <time>2020-10-04T20:00:01.979Z</time>
      </trkpt>
      <trkpt lat="43.38782" lon="6.63562">
        <ele>130.5</ele>
        <time>2020-10-04T20:00:02.827Z</time>
      </trkpt>
      <trkpt lat="43.38776" lon="6.63549">
        <ele>129.7</ele>
        <time>2020-10-04T20:00:03.686Z</time>
      </trkpt>
      <trkpt lat="43.38776" lon="6.63538">
        <ele>129.7</ele>
        <time>2020-10-04T20:00:04.778Z</time>
      </trkpt>
      <trkpt lat="43.38779" lon="6.63529">
        <ele>130.3</ele>
        <time>2020-10-04T20:00:06.947Z</time>
      </trkpt>
      <trkpt lat="43.38781" lon="6.6352">
        <ele>130.8</ele>
        <time>2020-10-04T20:00:08.898Z</time>
      </trkpt>
      <trkpt lat="43.38783" lon="6.6351">
        <ele>131.4</ele>
        <time>2020-10-04T20:00:11.109Z</time>
      </trkpt>
      <trkpt lat="43.38786" lon="6.635">
        <ele>132.1</ele>
        <time>2020-10-04T20:00:13.622Z</time>
      </trkpt>
      <trkpt lat="43.38776" lon="6.63486">
        <ele>129.5</ele>
        <time>2020-10-04T20:00:14.713Z</time>
      </trkpt>
      <trkpt lat="43.38753" lon="6.63483">
        <ele>124.6</ele>
        <time>2020-10-04T20:00:16.494Z</time>
      </trkpt>
      <trkpt lat="43.38738" lon="6.63495">
        <ele>122.7</ele>
        <time>2020-10-04T20:00:17.809Z</time>
      </trkpt>
      <trkpt lat="43.38726" lon="6.63507">
        <ele>121.7</ele>
        <time>2020-10-04T20:00:18.916Z</time>
      </trkpt>
      <trkpt lat="43.38712" lon="6.63501">
        <ele>120</ele>
        <time>2020-10-04T20:00:20.043Z</time>
      </trkpt>
      <trkpt lat="43.38688" lon="6.63486">
        <ele>116.7</ele>
        <time>2020-10-04T20:00:22.049Z</time>
      </trkpt>
      <trkpt lat="43.38668" lon="6.63472">
        <ele>113.4</ele>
        <time>2020-10-04T20:00:23.800Z</time>
      </trkpt>
      <trkpt lat="43.38655" lon="6.63442">
        <ele>110.6</ele>
        <time>2020-10-04T20:00:25.728Z</time>
      </trkpt>
      <trkpt lat="43.38649" lon="6.63421">
        <ele>108.9</ele>
        <time>2020-10-04T20:00:27.004Z</time>
      </trkpt>
      <trkpt lat="43.38639" lon="6.63399">
        <ele>108.7</ele>
        <time>2020-10-04T20:00:29.319Z</time>
      </trkpt>
      <trkpt lat="43.38623" lon="6.63396">
        <ele>108.5</ele>
        <time>2020-10-04T20:00:31.185Z</time>
      </trkpt>
      <trkpt lat="43.38607" lon="6.63403">
        <ele>107.3</ele>
        <time>2020-10-04T20:00:32.443Z</time>
      </trkpt>
      <trkpt lat="43.38589" lon="6.63397">
        <ele>107.4</ele>
        <time>2020-10-04T20:00:35.197Z</time>
      </trkpt>
      <trkpt lat="43.38574" lon="6.63398">
        <ele>108</ele>
        <time>2020-10-04T20:00:38.422Z</time>
      </trkpt>
      <trkpt lat="43.3856" lon="6.63389">
        <ele>110.7</ele>
        <time>2020-10-04T20:00:46.610Z</time>
      </trkpt>
      <trkpt lat="43.3854" lon="6.63393">
        <ele>111.6</ele>
        <time>2020-10-04T20:00:51.185Z</time>
      </trkpt>
      <trkpt lat="43.38527" lon="6.6341">
        <ele>109.9</ele>
        <time>2020-10-04T20:00:52.549Z</time>
      </trkpt>
      <trkpt lat="43.38511" lon="6.63423">
        <ele>109.4</ele>
        <time>2020-10-04T20:00:54.376Z</time>
      </trkpt>
      <trkpt lat="43.38494" lon="6.63443">
        <ele>107.9</ele>
        <time>2020-10-04T20:00:55.970Z</time>
      </trkpt>
      <trkpt lat="43.38477" lon="6.63469">
        <ele>106.3</ele>
        <time>2020-10-04T20:00:57.773Z</time>
      </trkpt>
      <trkpt lat="43.38456" lon="6.6349">
        <ele>105.9</ele>
        <time>2020-10-04T20:01:00.811Z</time>
      </trkpt>
      <trkpt lat="43.38435" lon="6.63512">
        <ele>105.6</ele>
        <time>2020-10-04T20:01:03.972Z</time>
      </trkpt>
      <trkpt lat="43.38424" lon="6.63541">
        <ele>103.7</ele>
        <time>2020-10-04T20:01:05.797Z</time>
      </trkpt>
      <trkpt lat="43.38415" lon="6.63568">
        <ele>101</ele>
        <time>2020-10-04T20:01:07.466Z</time>
      </trkpt>
      <trkpt lat="43.38399" lon="6.6359">
        <ele>100.2</ele>
        <time>2020-10-04T20:01:09.483Z</time>
      </trkpt>
      <trkpt lat="43.38385" lon="6.63611">
        <ele>99.8</ele>
        <time>2020-10-04T20:01:11.767Z</time>
      </trkpt>
      <trkpt lat="43.38376" lon="6.63625">
        <ele>99.5</ele>
        <time>2020-10-04T20:01:13.224Z</time>
      </trkpt>
      <trkpt lat="43.38368" lon="6.63632">
        <ele>99.5</ele>
        <time>2020-10-04T20:01:14.551Z</time>
      </trkpt>
      <trkpt lat="43.38363" lon="6.63637">
        <ele>99.4</ele>
        <time>2020-10-04T20:01:15.240Z</time>
      </trkpt>
      <trkpt lat="43.38363" lon="6.63637">
        <ele>99.4</ele>
        <time>2020-10-04T20:01:15.240Z</time>
      </trkpt>
      <trkpt lat="43.38363" lon="6.63637">
        <ele>99.4</ele>
        <time>2020-10-04T20:01:15.240Z</time>
      </trkpt>
      <trkpt lat="43.3836" lon="6.63641">
        <ele>99.3</ele>
        <time>2020-10-04T20:01:15.632Z</time>
      </trkpt>
      <trkpt lat="43.38357" lon="6.63643">
        <ele>99.4</ele>
        <time>2020-10-04T20:01:16.243Z</time>
      </trkpt>
      <trkpt lat="43.38354" lon="6.63644">
        <ele>99.6</ele>
        <time>2020-10-04T20:01:17.078Z</time>
      </trkpt>
      <trkpt lat="43.3835" lon="6.63645">
        <ele>99.8</ele>
        <time>2020-10-04T20:01:18.023Z</time>
      </trkpt>
      <trkpt lat="43.38348" lon="6.63645">
        <ele>99.9</ele>
        <time>2020-10-04T20:01:18.530Z</time>
      </trkpt>
      <trkpt lat="43.38343" lon="6.63649">
        <ele>100</ele>
        <time>2020-10-04T20:01:19.461Z</time>
      </trkpt>
      <trkpt lat="43.38336" lon="6.63656">
        <ele>99.9</ele>
        <time>2020-10-04T20:01:20.503Z</time>
      </trkpt>
      <trkpt lat="43.38328" lon="6.63665">
        <ele>98.7</ele>
        <time>2020-10-04T20:01:21.312Z</time>
      </trkpt>
      <trkpt lat="43.38321" lon="6.63674">
        <ele>97.5</ele>
        <time>2020-10-04T20:01:22.042Z</time>
      </trkpt>
      <trkpt lat="43.38313" lon="6.63682">
        <ele>96.5</ele>
        <time>2020-10-04T20:01:22.773Z</time>
      </trkpt>
      <trkpt lat="43.38306" lon="6.63689">
        <ele>95.8</ele>
        <time>2020-10-04T20:01:23.418Z</time>
      </trkpt>
      <trkpt lat="43.383" lon="6.63696">
        <ele>95.3</ele>
        <time>2020-10-04T20:01:24.067Z</time>
      </trkpt>
      <trkpt lat="43.38294" lon="6.63703">
        <ele>94.9</ele>
        <time>2020-10-04T20:01:24.713Z</time>
      </trkpt>
      <trkpt lat="43.38286" lon="6.63708">
        <ele>94.8</ele>
        <time>2020-10-04T20:01:25.762Z</time>
      </trkpt>
      <trkpt lat="43.38277" lon="6.63714">
        <ele>94.8</ele>
        <time>2020-10-04T20:01:27.119Z</time>
      </trkpt>
      <trkpt lat="43.38266" lon="6.63719">
        <ele>95.1</ele>
        <time>2020-10-04T20:01:29.129Z</time>
      </trkpt>
      <trkpt lat="43.38253" lon="6.63714">
        <ele>95.2</ele>
        <time>2020-10-04T20:01:31.150Z</time>
      </trkpt>
      <trkpt lat="43.3824" lon="6.6371">
        <ele>97</ele>
        <time>2020-10-04T20:01:38.159Z</time>
      </trkpt>
      <trkpt lat="43.38228" lon="6.63703">
        <ele>98.8</ele>
        <time>2020-10-04T20:01:44.753Z</time>
      </trkpt>
      <trkpt lat="43.38218" lon="6.63696">
        <ele>100.1</ele>
        <time>2020-10-04T20:01:49.390Z</time>
      </trkpt>
      <trkpt lat="43.38206" lon="6.63688">
        <ele>101.6</ele>
        <time>2020-10-04T20:01:54.792Z</time>
      </trkpt>
      <trkpt lat="43.38194" lon="6.63678">
        <ele>102.8</ele>
        <time>2020-10-04T20:01:59.141Z</time>
      </trkpt>
      <trkpt lat="43.38181" lon="6.63661">
        <ele>103.6</ele>
        <time>2020-10-04T20:02:03.299Z</time>
      </trkpt>
      <trkpt lat="43.38169" lon="6.63641">
        <ele>104.2</ele>
        <time>2020-10-04T20:02:06.910Z</time>
      </trkpt>
      <trkpt lat="43.38163" lon="6.63616">
        <ele>103.3</ele>
        <time>2020-10-04T20:02:08.444Z</time>
      </trkpt>
      <trkpt lat="43.38157" lon="6.63604">
        <ele>103.3</ele>
        <time>2020-10-04T20:02:09.905Z</time>
      </trkpt>
      <trkpt lat="43.38157" lon="6.63604">
        <ele>103.3</ele>
        <time>2020-10-04T20:02:09.905Z</time>
      </trkpt>
      <trkpt lat="43.38155" lon="6.63603">
        <ele>103.4</ele>
        <time>2020-10-04T20:02:10.351Z</time>
      </trkpt>
      <trkpt lat="43.38153" lon="6.63602">
        <ele>103.6</ele>
        <time>2020-10-04T20:02:11.168Z</time>
      </trkpt>
      <trkpt lat="43.3815" lon="6.63601">
        <ele>103.8</ele>
        <time>2020-10-04T20:02:11.910Z</time>
      </trkpt>
      <trkpt lat="43.3815" lon="6.63601">
        <ele>103.8</ele>
        <time>2020-10-04T20:02:11.910Z</time>
      </trkpt>
      <trkpt lat="43.38148" lon="6.636">
        <ele>104.1</ele>
        <time>2020-10-04T20:02:13.011Z</time>
      </trkpt>
      <trkpt lat="43.38144" lon="6.63603">
        <ele>104.6</ele>
        <time>2020-10-04T20:02:14.907Z</time>
      </trkpt>
      <trkpt lat="43.38141" lon="6.63612">
        <ele>105.5</ele>
        <time>2020-10-04T20:02:18.238Z</time>
      </trkpt>
      <trkpt lat="43.38139" lon="6.63627">
        <ele>106.6</ele>
        <time>2020-10-04T20:02:22.149Z</time>
      </trkpt>
      <trkpt lat="43.3814" lon="6.63644">
        <ele>107.6</ele>
        <time>2020-10-04T20:02:25.858Z</time>
      </trkpt>
      <trkpt lat="43.38138" lon="6.6366">
        <ele>108.7</ele>
        <time>2020-10-04T20:02:29.782Z</time>
      </trkpt>
      <trkpt lat="43.38139" lon="6.63678">
        <ele>110.5</ele>
        <time>2020-10-04T20:02:36.732Z</time>
      </trkpt>
      <trkpt lat="43.38143" lon="6.63696">
        <ele>112.3</ele>
        <time>2020-10-04T20:02:43.644Z</time>
      </trkpt>
      <trkpt lat="43.38147" lon="6.63713">
        <ele>113.9</ele>
        <time>2020-10-04T20:02:49.496Z</time>
      </trkpt>
      <trkpt lat="43.38151" lon="6.63727">
        <ele>115.1</ele>
        <time>2020-10-04T20:02:53.801Z</time>
      </trkpt>
      <trkpt lat="43.38154" lon="6.63737">
        <ele>115.7</ele>
        <time>2020-10-04T20:02:56.093Z</time>
      </trkpt>
      <trkpt lat="43.38158" lon="6.63745">
        <ele>116.1</ele>
        <time>2020-10-04T20:02:57.800Z</time>
      </trkpt>
      <trkpt lat="43.38161" lon="6.63752">
        <ele>116.6</ele>
        <time>2020-10-04T20:02:59.642Z</time>
      </trkpt>
      <trkpt lat="43.38165" lon="6.63761">
        <ele>118</ele>
        <time>2020-10-04T20:03:03.616Z</time>
      </trkpt>
      <trkpt lat="43.38168" lon="6.63768">
        <ele>119</ele>
        <time>2020-10-04T20:03:06.930Z</time>
      </trkpt>
      <trkpt lat="43.38172" lon="6.63775">
        <ele>119.8</ele>
        <time>2020-10-04T20:03:10.010Z</time>
      </trkpt>
      <trkpt lat="43.38177" lon="6.63783">
        <ele>120.6</ele>
        <time>2020-10-04T20:03:12.852Z</time>
      </trkpt>
      <trkpt lat="43.38182" lon="6.63791">
        <ele>121.5</ele>
        <time>2020-10-04T20:03:16.206Z</time>
      </trkpt>
      <trkpt lat="43.38187" lon="6.63799">
        <ele>122.3</ele>
        <time>2020-10-04T20:03:19.047Z</time>
      </trkpt>
      <trkpt lat="43.38191" lon="6.63806">
        <ele>123</ele>
        <time>2020-10-04T20:03:21.534Z</time>
      </trkpt>
      <trkpt lat="43.38196" lon="6.63814">
        <ele>123.7</ele>
        <time>2020-10-04T20:03:24.026Z</time>
      </trkpt>
      <trkpt lat="43.38202" lon="6.63821">
        <ele>124.1</ele>
        <time>2020-10-04T20:03:25.954Z</time>
      </trkpt>
      <trkpt lat="43.38208" lon="6.63829">
        <ele>124.6</ele>
        <time>2020-10-04T20:03:28.101Z</time>
      </trkpt>
      <trkpt lat="43.38213" lon="6.63838">
        <ele>125.8</ele>
        <time>2020-10-04T20:03:32.345Z</time>
      </trkpt>
      <trkpt lat="43.38242" lon="6.63878">
        <ele>129.4</ele>
        <time>2020-10-04T20:03:45.391Z</time>
      </trkpt>
      <trkpt lat="43.38287" lon="6.63912">
        <ele>124.9</ele>
        <time>2020-10-04T20:03:49.283Z</time>
      </trkpt>
      <trkpt lat="43.38301" lon="6.6395">
        <ele>124.1</ele>
        <time>2020-10-04T20:03:52.436Z</time>
      </trkpt>
      <trkpt lat="43.38303" lon="6.63991">
        <ele>126.6</ele>
        <time>2020-10-04T20:04:01.609Z</time>
      </trkpt>
      <trkpt lat="43.38306" lon="6.64021">
        <ele>122.7</ele>
        <time>2020-10-04T20:04:03.302Z</time>
      </trkpt>
      <trkpt lat="43.38294" lon="6.64044">
        <ele>122.7</ele>
        <time>2020-10-04T20:04:06.121Z</time>
      </trkpt>
      <trkpt lat="43.38262" lon="6.64091">
        <ele>124.4</ele>
        <time>2020-10-04T20:04:15.711Z</time>
      </trkpt>
      <trkpt lat="43.38225" lon="6.64127">
        <ele>128.1</ele>
        <time>2020-10-04T20:04:29.313Z</time>
      </trkpt>
      <trkpt lat="43.38219" lon="6.6416">
        <ele>123.6</ele>
        <time>2020-10-04T20:04:31.222Z</time>
      </trkpt>
      <trkpt lat="43.3825" lon="6.6418">
        <ele>114.4</ele>
        <time>2020-10-04T20:04:33.855Z</time>
      </trkpt>
      <trkpt lat="43.3827" lon="6.64212">
        <ele>108.6</ele>
        <time>2020-10-04T20:04:36.162Z</time>
      </trkpt>
      <trkpt lat="43.38256" lon="6.64246">
        <ele>106.2</ele>
        <time>2020-10-04T20:04:38.365Z</time>
      </trkpt>
      <trkpt lat="43.38238" lon="6.64269">
        <ele>105</ele>
        <time>2020-10-04T20:04:40.363Z</time>
      </trkpt>
      <trkpt lat="43.38233" lon="6.64288">
        <ele>102.7</ele>
        <time>2020-10-04T20:04:41.477Z</time>
      </trkpt>
      <trkpt lat="43.38225" lon="6.64293">
        <ele>102.9</ele>
        <time>2020-10-04T20:04:42.966Z</time>
      </trkpt>
      <trkpt lat="43.38219" lon="6.64312">
        <ele>100.3</ele>
        <time>2020-10-04T20:04:44.123Z</time>
      </trkpt>
      <trkpt lat="43.38208" lon="6.64331">
        <ele>97.9</ele>
        <time>2020-10-04T20:04:45.484Z</time>
      </trkpt>
      <trkpt lat="43.38186" lon="6.64346">
        <ele>97.6</ele>
        <time>2020-10-04T20:04:48.456Z</time>
      </trkpt>
      <trkpt lat="43.38162" lon="6.64367">
        <ele>94.9</ele>
        <time>2020-10-04T20:04:50.620Z</time>
      </trkpt>
      <trkpt lat="43.38146" lon="6.64399">
        <ele>89.5</ele>
        <time>2020-10-04T20:04:52.785Z</time>
      </trkpt>
      <trkpt lat="43.38128" lon="6.64431">
        <ele>86.2</ele>
        <time>2020-10-04T20:04:55.019Z</time>
      </trkpt>
      <trkpt lat="43.38104" lon="6.64436">
        <ele>86.7</ele>
        <time>2020-10-04T20:04:59.162Z</time>
      </trkpt>
      <trkpt lat="43.38076" lon="6.64422">
        <ele>87.6</ele>
        <time>2020-10-04T20:05:04.779Z</time>
      </trkpt>
      <trkpt lat="43.38048" lon="6.6443">
        <ele>86.7</ele>
        <time>2020-10-04T20:05:07.434Z</time>
      </trkpt>
      <trkpt lat="43.38027" lon="6.6445">
        <ele>86.7</ele>
        <time>2020-10-04T20:05:10.996Z</time>
      </trkpt>
      <trkpt lat="43.38001" lon="6.64452">
        <ele>86.7</ele>
        <time>2020-10-04T20:05:14.442Z</time>
      </trkpt>
      <trkpt lat="43.37976" lon="6.64448">
        <ele>87.5</ele>
        <time>2020-10-04T20:05:19.326Z</time>
      </trkpt>
      <trkpt lat="43.37951" lon="6.64444">
        <ele>88.5</ele>
        <time>2020-10-04T20:05:24.747Z</time>
      </trkpt>
      <trkpt lat="43.37927" lon="6.64448">
        <ele>89.5</ele>
        <time>2020-10-04T20:05:30.064Z</time>
      </trkpt>
      <trkpt lat="43.37905" lon="6.64453">
        <ele>91</ele>
        <time>2020-10-04T20:05:36.023Z</time>
      </trkpt>
      <trkpt lat="43.37885" lon="6.64455">
        <ele>92.9</ele>
        <time>2020-10-04T20:05:42.792Z</time>
      </trkpt>
      <trkpt lat="43.37871" lon="6.64453">
        <ele>94.7</ele>
        <time>2020-10-04T20:05:49.445Z</time>
      </trkpt>
      <trkpt lat="43.37861" lon="6.6446">
        <ele>95.1</ele>
        <time>2020-10-04T20:05:51.699Z</time>
      </trkpt>
      <trkpt lat="43.37851" lon="6.64471">
        <ele>94.9</ele>
        <time>2020-10-04T20:05:53.117Z</time>
      </trkpt>
      <trkpt lat="43.37839" lon="6.6448">
        <ele>94.9</ele>
        <time>2020-10-04T20:05:55.043Z</time>
      </trkpt>
      <trkpt lat="43.37827" lon="6.64488">
        <ele>95.3</ele>
        <time>2020-10-04T20:05:57.520Z</time>
      </trkpt>
      <trkpt lat="43.37816" lon="6.64495">
        <ele>96.2</ele>
        <time>2020-10-04T20:06:00.976Z</time>
      </trkpt>
      <trkpt lat="43.37808" lon="6.64501">
        <ele>96.6</ele>
        <time>2020-10-04T20:06:03.071Z</time>
      </trkpt>
      <trkpt lat="43.37802" lon="6.64505">
        <ele>97.2</ele>
        <time>2020-10-04T20:06:05.222Z</time>
      </trkpt>
      <trkpt lat="43.37797" lon="6.64508">
        <ele>97.7</ele>
        <time>2020-10-04T20:06:07.052Z</time>
      </trkpt>
      <trkpt lat="43.37788" lon="6.6451">
        <ele>98.7</ele>
        <time>2020-10-04T20:06:10.688Z</time>
      </trkpt>
      <trkpt lat="43.3778" lon="6.64514">
        <ele>99.4</ele>
        <time>2020-10-04T20:06:13.272Z</time>
      </trkpt>
      <trkpt lat="43.37773" lon="6.64518">
        <ele>99.9</ele>
        <time>2020-10-04T20:06:15.328Z</time>
      </trkpt>
      <trkpt lat="43.37765" lon="6.64525">
        <ele>100</ele>
        <time>2020-10-04T20:06:16.761Z</time>
      </trkpt>
      <trkpt lat="43.37759" lon="6.64536">
        <ele>99.4</ele>
        <time>2020-10-04T20:06:17.482Z</time>
      </trkpt>
      <trkpt lat="43.37754" lon="6.64545">
        <ele>98.8</ele>
        <time>2020-10-04T20:06:18.113Z</time>
      </trkpt>
      <trkpt lat="43.37752" lon="6.64555">
        <ele>97.6</ele>
        <time>2020-10-04T20:06:18.689Z</time>
      </trkpt>
      <trkpt lat="43.37747" lon="6.64563">
        <ele>96.8</ele>
        <time>2020-10-04T20:06:19.298Z</time>
      </trkpt>
      <trkpt lat="43.37742" lon="6.64572">
        <ele>95.9</ele>
        <time>2020-10-04T20:06:19.934Z</time>
      </trkpt>
      <trkpt lat="43.37736" lon="6.6458">
        <ele>95</ele>
        <time>2020-10-04T20:06:20.581Z</time>
      </trkpt>
      <trkpt lat="43.37728" lon="6.64586">
        <ele>94.9</ele>
        <time>2020-10-04T20:06:21.728Z</time>
      </trkpt>
      <trkpt lat="43.37717" lon="6.64591">
        <ele>95.3</ele>
        <time>2020-10-04T20:06:24.029Z</time>
      </trkpt>
      <trkpt lat="43.37705" lon="6.64594">
        <ele>95.7</ele>
        <time>2020-10-04T20:06:26.412Z</time>
      </trkpt>
      <trkpt lat="43.37693" lon="6.64598">
        <ele>96</ele>
        <time>2020-10-04T20:06:28.585Z</time>
      </trkpt>
      <trkpt lat="43.3768" lon="6.64597">
        <ele>96.3</ele>
        <time>2020-10-04T20:06:30.777Z</time>
      </trkpt>
      <trkpt lat="43.37669" lon="6.64594">
        <ele>96.7</ele>
        <time>2020-10-04T20:06:33.052Z</time>
      </trkpt>
      <trkpt lat="43.37659" lon="6.64589">
        <ele>97.9</ele>
        <time>2020-10-04T20:06:37.335Z</time>
      </trkpt>
      <trkpt lat="43.37648" lon="6.64582">
        <ele>100</ele>
        <time>2020-10-04T20:06:43.562Z</time>
      </trkpt>
      <trkpt lat="43.37633" lon="6.64577">
        <ele>103.3</ele>
        <time>2020-10-04T20:06:51.598Z</time>
      </trkpt>
      <trkpt lat="43.37617" lon="6.64577">
        <ele>105.5</ele>
        <time>2020-10-04T20:07:00.029Z</time>
      </trkpt>
      <trkpt lat="43.37599" lon="6.64582">
        <ele>107.1</ele>
        <time>2020-10-04T20:07:05.819Z</time>
      </trkpt>
      <trkpt lat="43.37581" lon="6.64589">
        <ele>108.8</ele>
        <time>2020-10-04T20:07:11.936Z</time>
      </trkpt>
      <trkpt lat="43.37566" lon="6.646">
        <ele>111.1</ele>
        <time>2020-10-04T20:07:20.951Z</time>
      </trkpt>
      <trkpt lat="43.37552" lon="6.64611">
        <ele>112.3</ele>
        <time>2020-10-04T20:07:25.515Z</time>
      </trkpt>
      <trkpt lat="43.37538" lon="6.64623">
        <ele>113.1</ele>
        <time>2020-10-04T20:07:29.370Z</time>
      </trkpt>
      <trkpt lat="43.37523" lon="6.64635">
        <ele>113.7</ele>
        <time>2020-10-04T20:07:32.839Z</time>
      </trkpt>
      <trkpt lat="43.37509" lon="6.64648">
        <ele>113.2</ele>
        <time>2020-10-04T20:07:34.555Z</time>
      </trkpt>
      <trkpt lat="43.37494" lon="6.64659">
        <ele>112.3</ele>
        <time>2020-10-04T20:07:35.887Z</time>
      </trkpt>
      <trkpt lat="43.37482" lon="6.64668">
        <ele>110.7</ele>
        <time>2020-10-04T20:07:36.939Z</time>
      </trkpt>
      <trkpt lat="43.3747" lon="6.64677">
        <ele>110.4</ele>
        <time>2020-10-04T20:07:38.319Z</time>
      </trkpt>
      <trkpt lat="43.37458" lon="6.64687">
        <ele>109.8</ele>
        <time>2020-10-04T20:07:39.541Z</time>
      </trkpt>
      <trkpt lat="43.37445" lon="6.64698">
        <ele>108.9</ele>
        <time>2020-10-04T20:07:40.660Z</time>
      </trkpt>
      <trkpt lat="43.37432" lon="6.64709">
        <ele>108</ele>
        <time>2020-10-04T20:07:41.844Z</time>
      </trkpt>
      <trkpt lat="43.37417" lon="6.6472">
        <ele>107</ele>
        <time>2020-10-04T20:07:43.034Z</time>
      </trkpt>
      <trkpt lat="43.37404" lon="6.64731">
        <ele>105.5</ele>
        <time>2020-10-04T20:07:44.270Z</time>
      </trkpt>
      <trkpt lat="43.3739" lon="6.64744">
        <ele>104.5</ele>
        <time>2020-10-04T20:07:45.516Z</time>
      </trkpt>
      <trkpt lat="43.37375" lon="6.64757">
        <ele>105.4</ele>
        <time>2020-10-04T20:07:49.711Z</time>
      </trkpt>
      <trkpt lat="43.37359" lon="6.64766">
        <ele>107.2</ele>
        <time>2020-10-04T20:07:56.108Z</time>
      </trkpt>
      <trkpt lat="43.37342" lon="6.64767">
        <ele>108.1</ele>
        <time>2020-10-04T20:08:00.346Z</time>
      </trkpt>
      <trkpt lat="43.37326" lon="6.64767">
        <ele>108.5</ele>
        <time>2020-10-04T20:08:03.180Z</time>
      </trkpt>
      <trkpt lat="43.37311" lon="6.64769">
        <ele>109</ele>
        <time>2020-10-04T20:08:06.087Z</time>
      </trkpt>
      <trkpt lat="43.37295" lon="6.6477">
        <ele>109.4</ele>
        <time>2020-10-04T20:08:08.885Z</time>
      </trkpt>
      <trkpt lat="43.3729" lon="6.6477">
        <ele>109.4</ele>
        <time>2020-10-04T20:08:09.664Z</time>
      </trkpt>
      <trkpt lat="43.37286" lon="6.6477">
        <ele>109.4</ele>
        <time>2020-10-04T20:08:10.213Z</time>
      </trkpt>
      <trkpt lat="43.37279" lon="6.64766">
        <ele>109</ele>
        <time>2020-10-04T20:08:10.732Z</time>
      </trkpt>
      <trkpt lat="43.37273" lon="6.64762">
        <ele>108.4</ele>
        <time>2020-10-04T20:08:11.236Z</time>
      </trkpt>
      <trkpt lat="43.37268" lon="6.64756">
        <ele>107.7</ele>
        <time>2020-10-04T20:08:11.783Z</time>
      </trkpt>
      <trkpt lat="43.37263" lon="6.64749">
        <ele>106.9</ele>
        <time>2020-10-04T20:08:12.341Z</time>
      </trkpt>
      <trkpt lat="43.37256" lon="6.64739">
        <ele>107.5</ele>
        <time>2020-10-04T20:08:14.846Z</time>
      </trkpt>
      <trkpt lat="43.37249" lon="6.64728">
        <ele>108.4</ele>
        <time>2020-10-04T20:08:18.194Z</time>
      </trkpt>
      <trkpt lat="43.37239" lon="6.64713">
        <ele>109.7</ele>
        <time>2020-10-04T20:08:22.848Z</time>
      </trkpt>
      <trkpt lat="43.37229" lon="6.64697">
        <ele>111.5</ele>
        <time>2020-10-04T20:08:29.399Z</time>
      </trkpt>
      <trkpt lat="43.37215" lon="6.64694">
        <ele>112.8</ele>
        <time>2020-10-04T20:08:34.088Z</time>
      </trkpt>
      <trkpt lat="43.372" lon="6.64698">
        <ele>113.3</ele>
        <time>2020-10-04T20:08:37.007Z</time>
      </trkpt>
      <trkpt lat="43.37186" lon="6.64703">
        <ele>113.4</ele>
        <time>2020-10-04T20:08:39.087Z</time>
      </trkpt>
      <trkpt lat="43.37176" lon="6.64708">
        <ele>113.1</ele>
        <time>2020-10-04T20:08:40.140Z</time>
      </trkpt>
      <trkpt lat="43.37166" lon="6.64713">
        <ele>112.6</ele>
        <time>2020-10-04T20:08:41.020Z</time>
      </trkpt>
      <trkpt lat="43.37155" lon="6.6472">
        <ele>111.6</ele>
        <time>2020-10-04T20:08:41.981Z</time>
      </trkpt>
      <trkpt lat="43.37143" lon="6.64725">
        <ele>111.1</ele>
        <time>2020-10-04T20:08:43.107Z</time>
      </trkpt>
      <trkpt lat="43.37129" lon="6.6473">
        <ele>110.5</ele>
        <time>2020-10-04T20:08:44.281Z</time>
      </trkpt>
      <trkpt lat="43.37116" lon="6.64735">
        <ele>110</ele>
        <time>2020-10-04T20:08:45.533Z</time>
      </trkpt>
      <trkpt lat="43.37103" lon="6.64743">
        <ele>109.3</ele>
        <time>2020-10-04T20:08:46.653Z</time>
      </trkpt>
      <trkpt lat="43.3709" lon="6.64751">
        <ele>108.9</ele>
        <time>2020-10-04T20:08:48.136Z</time>
      </trkpt>
      <trkpt lat="43.37077" lon="6.6476">
        <ele>109.9</ele>
        <time>2020-10-04T20:08:52.120Z</time>
      </trkpt>
      <trkpt lat="43.37063" lon="6.64767">
        <ele>110.6</ele>
        <time>2020-10-04T20:08:55.547Z</time>
      </trkpt>
      <trkpt lat="43.37049" lon="6.64772">
        <ele>111.2</ele>
        <time>2020-10-04T20:08:58.707Z</time>
      </trkpt>
      <trkpt lat="43.37036" lon="6.64773">
        <ele>111.5</ele>
        <time>2020-10-04T20:09:01.043Z</time>
      </trkpt>
      <trkpt lat="43.37021" lon="6.64773">
        <ele>111.7</ele>
        <time>2020-10-04T20:09:03.298Z</time>
      </trkpt>
      <trkpt lat="43.37006" lon="6.64769">
        <ele>111.8</ele>
        <time>2020-10-04T20:09:05.589Z</time>
      </trkpt>
      <trkpt lat="43.36991" lon="6.64762">
        <ele>112.9</ele>
        <time>2020-10-04T20:09:09.924Z</time>
      </trkpt>
      <trkpt lat="43.36975" lon="6.64758">
        <ele>114.9</ele>
        <time>2020-10-04T20:09:17.584Z</time>
      </trkpt>
      <trkpt lat="43.3696" lon="6.64757">
        <ele>117.1</ele>
        <time>2020-10-04T20:09:25.607Z</time>
      </trkpt>
      <trkpt lat="43.36945" lon="6.6476">
        <ele>119.2</ele>
        <time>2020-10-04T20:09:33.661Z</time>
      </trkpt>
      <trkpt lat="43.3693" lon="6.64764">
        <ele>121</ele>
        <time>2020-10-04T20:09:40.289Z</time>
      </trkpt>
      <trkpt lat="43.36916" lon="6.6477">
        <ele>122.5</ele>
        <time>2020-10-04T20:09:45.625Z</time>
      </trkpt>
      <trkpt lat="43.36904" lon="6.64777">
        <ele>124.2</ele>
        <time>2020-10-04T20:09:52.092Z</time>
      </trkpt>
      <trkpt lat="43.36895" lon="6.64783">
        <ele>125.2</ele>
        <time>2020-10-04T20:09:55.650Z</time>
      </trkpt>
      <trkpt lat="43.36888" lon="6.64791">
        <ele>125.5</ele>
        <time>2020-10-04T20:09:57.474Z</time>
      </trkpt>
      <trkpt lat="43.36882" lon="6.64803">
        <ele>124.8</ele>
        <time>2020-10-04T20:09:58.213Z</time>
      </trkpt>
      <trkpt lat="43.36875" lon="6.64816">
        <ele>123.7</ele>
        <time>2020-10-04T20:09:59.109Z</time>
      </trkpt>
      <trkpt lat="43.36873" lon="6.6483">
        <ele>121.7</ele>
        <time>2020-10-04T20:09:59.901Z</time>
      </trkpt>
      <trkpt lat="43.3687" lon="6.64842">
        <ele>122.1</ele>
        <time>2020-10-04T20:10:02.007Z</time>
      </trkpt>
      <trkpt lat="43.36865" lon="6.64854">
        <ele>123.2</ele>
        <time>2020-10-04T20:10:05.953Z</time>
      </trkpt>
      <trkpt lat="43.36854" lon="6.64861">
        <ele>124.2</ele>
        <time>2020-10-04T20:10:09.620Z</time>
      </trkpt>
      <trkpt lat="43.36842" lon="6.64861">
        <ele>124.9</ele>
        <time>2020-10-04T20:10:12.712Z</time>
      </trkpt>
      <trkpt lat="43.36829" lon="6.64866">
        <ele>125.4</ele>
        <time>2020-10-04T20:10:15.431Z</time>
      </trkpt>
      <trkpt lat="43.36817" lon="6.6487">
        <ele>125.4</ele>
        <time>2020-10-04T20:10:17.198Z</time>
      </trkpt>
      <trkpt lat="43.36804" lon="6.64873">
        <ele>125.3</ele>
        <time>2020-10-04T20:10:18.794Z</time>
      </trkpt>
      <trkpt lat="43.36794" lon="6.64876">
        <ele>125.3</ele>
        <time>2020-10-04T20:10:20.192Z</time>
      </trkpt>
      <trkpt lat="43.36783" lon="6.64877">
        <ele>125.2</ele>
        <time>2020-10-04T20:10:21.566Z</time>
      </trkpt>
      <trkpt lat="43.36771" lon="6.64878">
        <ele>125</ele>
        <time>2020-10-04T20:10:22.950Z</time>
      </trkpt>
      <trkpt lat="43.36758" lon="6.64878">
        <ele>124.9</ele>
        <time>2020-10-04T20:10:24.683Z</time>
      </trkpt>
      <trkpt lat="43.36744" lon="6.64878">
        <ele>125.1</ele>
        <time>2020-10-04T20:10:26.817Z</time>
      </trkpt>
      <trkpt lat="43.36731" lon="6.64881">
        <ele>125.5</ele>
        <time>2020-10-04T20:10:29.282Z</time>
      </trkpt>
      <trkpt lat="43.36719" lon="6.64886">
        <ele>125.6</ele>
        <time>2020-10-04T20:10:31.181Z</time>
      </trkpt>
      <trkpt lat="43.36709" lon="6.64889">
        <ele>125.7</ele>
        <time>2020-10-04T20:10:32.719Z</time>
      </trkpt>
      <trkpt lat="43.36699" lon="6.64893">
        <ele>125.5</ele>
        <time>2020-10-04T20:10:33.906Z</time>
      </trkpt>
      <trkpt lat="43.36686" lon="6.649">
        <ele>125.1</ele>
        <time>2020-10-04T20:10:35.171Z</time>
      </trkpt>
      <trkpt lat="43.36674" lon="6.64906">
        <ele>124.5</ele>
        <time>2020-10-04T20:10:36.279Z</time>
      </trkpt>
      <trkpt lat="43.36661" lon="6.64912">
        <ele>123.8</ele>
        <time>2020-10-04T20:10:37.340Z</time>
      </trkpt>
      <trkpt lat="43.36648" lon="6.64918">
        <ele>123.3</ele>
        <time>2020-10-04T20:10:38.611Z</time>
      </trkpt>
      <trkpt lat="43.36634" lon="6.64926">
        <ele>124</ele>
        <time>2020-10-04T20:10:42.201Z</time>
      </trkpt>
      <trkpt lat="43.36618" lon="6.64935">
        <ele>124.9</ele>
        <time>2020-10-04T20:10:46.295Z</time>
      </trkpt>
      <trkpt lat="43.36604" lon="6.64944">
        <ele>126.1</ele>
        <time>2020-10-04T20:10:50.882Z</time>
      </trkpt>
      <trkpt lat="43.3659" lon="6.64955">
        <ele>127.4</ele>
        <time>2020-10-04T20:10:55.620Z</time>
      </trkpt>
      <trkpt lat="43.3658" lon="6.64966">
        <ele>129.5</ele>
        <time>2020-10-04T20:11:02.550Z</time>
      </trkpt>
      <trkpt lat="43.36573" lon="6.64976">
        <ele>132.3</ele>
        <time>2020-10-04T20:11:07.950Z</time>
      </trkpt>
      <trkpt lat="43.36569" lon="6.64986">
        <ele>134.5</ele>
        <time>2020-10-04T20:11:12.499Z</time>
      </trkpt>
      <trkpt lat="43.36568" lon="6.65004">
        <ele>136.6</ele>
        <time>2020-10-04T20:11:19.221Z</time>
      </trkpt>
      <trkpt lat="43.36568" lon="6.65024">
        <ele>137.5</ele>
        <time>2020-10-04T20:11:22.977Z</time>
      </trkpt>
      <trkpt lat="43.3657" lon="6.65045">
        <ele>138.2</ele>
        <time>2020-10-04T20:11:26.556Z</time>
      </trkpt>
      <trkpt lat="43.36571" lon="6.65071">
        <ele>139.3</ele>
        <time>2020-10-04T20:11:31.390Z</time>
      </trkpt>
      <trkpt lat="43.36574" lon="6.65096">
        <ele>139.6</ele>
        <time>2020-10-04T20:11:34.278Z</time>
      </trkpt>
      <trkpt lat="43.36581" lon="6.65117">
        <ele>138.4</ele>
        <time>2020-10-04T20:11:35.569Z</time>
      </trkpt>
      <trkpt lat="43.36585" lon="6.65138">
        <ele>138.2</ele>
        <time>2020-10-04T20:11:37.513Z</time>
      </trkpt>
      <trkpt lat="43.36588" lon="6.6516">
        <ele>138.5</ele>
        <time>2020-10-04T20:11:40.174Z</time>
      </trkpt>
      <trkpt lat="43.36589" lon="6.65181">
        <ele>138.7</ele>
        <time>2020-10-04T20:11:42.539Z</time>
      </trkpt>
      <trkpt lat="43.3659" lon="6.65202">
        <ele>138.9</ele>
        <time>2020-10-04T20:11:44.923Z</time>
      </trkpt>
      <trkpt lat="43.36588" lon="6.65224">
        <ele>139.3</ele>
        <time>2020-10-04T20:11:47.746Z</time>
      </trkpt>
      <trkpt lat="43.36586" lon="6.65245">
        <ele>139.7</ele>
        <time>2020-10-04T20:11:50.540Z</time>
      </trkpt>
      <trkpt lat="43.36583" lon="6.65265">
        <ele>142.8</ele>
        <time>2020-10-04T20:11:58.308Z</time>
      </trkpt>
      <trkpt lat="43.36583" lon="6.65286">
        <ele>146.6</ele>
        <time>2020-10-04T20:12:06.317Z</time>
      </trkpt>
      <trkpt lat="43.36586" lon="6.65304">
        <ele>149.3</ele>
        <time>2020-10-04T20:12:13.389Z</time>
      </trkpt>
      <trkpt lat="43.36592" lon="6.6532">
        <ele>150.9</ele>
        <time>2020-10-04T20:12:19.299Z</time>
      </trkpt>
      <trkpt lat="43.36596" lon="6.6534">
        <ele>153.4</ele>
        <time>2020-10-04T20:12:27.317Z</time>
      </trkpt>
      <trkpt lat="43.36596" lon="6.65362">
        <ele>157.1</ele>
        <time>2020-10-04T20:12:35.781Z</time>
      </trkpt>
      <trkpt lat="43.36596" lon="6.65383">
        <ele>160.8</ele>
        <time>2020-10-04T20:12:43.638Z</time>
      </trkpt>
      <trkpt lat="43.36597" lon="6.65401">
        <ele>163.5</ele>
        <time>2020-10-04T20:12:50.513Z</time>
      </trkpt>
      <trkpt lat="43.36599" lon="6.65421">
        <ele>165.8</ele>
        <time>2020-10-04T20:12:58.359Z</time>
      </trkpt>
      <trkpt lat="43.36598" lon="6.65442">
        <ele>167.3</ele>
        <time>2020-10-04T20:13:03.687Z</time>
      </trkpt>
      <trkpt lat="43.36599" lon="6.65459">
        <ele>168.3</ele>
        <time>2020-10-04T20:13:07.411Z</time>
      </trkpt>
      <trkpt lat="43.36603" lon="6.65473">
        <ele>167.7</ele>
        <time>2020-10-04T20:13:08.304Z</time>
      </trkpt>
      <trkpt lat="43.36607" lon="6.65485">
        <ele>167</ele>
        <time>2020-10-04T20:13:09.021Z</time>
      </trkpt>
      <trkpt lat="43.36611" lon="6.65496">
        <ele>166.6</ele>
        <time>2020-10-04T20:13:09.792Z</time>
      </trkpt>
      <trkpt lat="43.36613" lon="6.65507">
        <ele>166.2</ele>
        <time>2020-10-04T20:13:10.460Z</time>
      </trkpt>
      <trkpt lat="43.36615" lon="6.6552">
        <ele>165.4</ele>
        <time>2020-10-04T20:13:11.181Z</time>
      </trkpt>
      <trkpt lat="43.36616" lon="6.65534">
        <ele>165</ele>
        <time>2020-10-04T20:13:12.074Z</time>
      </trkpt>
      <trkpt lat="43.36612" lon="6.6555">
        <ele>166.3</ele>
        <time>2020-10-04T20:13:16.693Z</time>
      </trkpt>
      <trkpt lat="43.36611" lon="6.65571">
        <ele>166.8</ele>
        <time>2020-10-04T20:13:19.639Z</time>
      </trkpt>
      <trkpt lat="43.36612" lon="6.6559">
        <ele>165.6</ele>
        <time>2020-10-04T20:13:20.729Z</time>
      </trkpt>
      <trkpt lat="43.36615" lon="6.65603">
        <ele>163.5</ele>
        <time>2020-10-04T20:13:21.468Z</time>
      </trkpt>
      <trkpt lat="43.36621" lon="6.65612">
        <ele>161.1</ele>
        <time>2020-10-04T20:13:22.135Z</time>
      </trkpt>
      <trkpt lat="43.36626" lon="6.6562">
        <ele>159.1</ele>
        <time>2020-10-04T20:13:22.722Z</time>
      </trkpt>
      <trkpt lat="43.3663" lon="6.6563">
        <ele>157.2</ele>
        <time>2020-10-04T20:13:23.410Z</time>
      </trkpt>
      <trkpt lat="43.36634" lon="6.65644">
        <ele>155.5</ele>
        <time>2020-10-04T20:13:24.200Z</time>
      </trkpt>
      <trkpt lat="43.36637" lon="6.65657">
        <ele>154</ele>
        <time>2020-10-04T20:13:24.970Z</time>
      </trkpt>
      <trkpt lat="43.36641" lon="6.65669">
        <ele>153</ele>
        <time>2020-10-04T20:13:25.743Z</time>
      </trkpt>
      <trkpt lat="43.36648" lon="6.65681">
        <ele>153.6</ele>
        <time>2020-10-04T20:13:28.369Z</time>
      </trkpt>
      <trkpt lat="43.36653" lon="6.65693">
        <ele>154.6</ele>
        <time>2020-10-04T20:13:31.920Z</time>
      </trkpt>
      <trkpt lat="43.36657" lon="6.65703">
        <ele>155.6</ele>
        <time>2020-10-04T20:13:35.557Z</time>
      </trkpt>
      <trkpt lat="43.36662" lon="6.65714">
        <ele>156.8</ele>
        <time>2020-10-04T20:13:40.192Z</time>
      </trkpt>
      <trkpt lat="43.36667" lon="6.65723">
        <ele>157.7</ele>
        <time>2020-10-04T20:13:43.417Z</time>
      </trkpt>
      <trkpt lat="43.36672" lon="6.65731">
        <ele>158.5</ele>
        <time>2020-10-04T20:13:46.257Z</time>
      </trkpt>
      <trkpt lat="43.36677" lon="6.65742">
        <ele>159.5</ele>
        <time>2020-10-04T20:13:49.809Z</time>
      </trkpt>
      <trkpt lat="43.36682" lon="6.65755">
        <ele>160.5</ele>
        <time>2020-10-04T20:13:53.376Z</time>
      </trkpt>
      <trkpt lat="43.36682" lon="6.6577">
        <ele>161.9</ele>
        <time>2020-10-04T20:13:58.810Z</time>
      </trkpt>
      <trkpt lat="43.36678" lon="6.65785">
        <ele>164</ele>
        <time>2020-10-04T20:14:04.985Z</time>
      </trkpt>
      <trkpt lat="43.36671" lon="6.65799">
        <ele>166.6</ele>
        <time>2020-10-04T20:14:11.429Z</time>
      </trkpt>
      <trkpt lat="43.36662" lon="6.65808">
        <ele>169</ele>
        <time>2020-10-04T20:14:17.434Z</time>
      </trkpt>
      <trkpt lat="43.36656" lon="6.65822">
        <ele>171.5</ele>
        <time>2020-10-04T20:14:23.341Z</time>
      </trkpt>
      <trkpt lat="43.36653" lon="6.65837">
        <ele>173.9</ele>
        <time>2020-10-04T20:14:29.563Z</time>
      </trkpt>
      <trkpt lat="43.36649" lon="6.65855">
        <ele>176.3</ele>
        <time>2020-10-04T20:14:36.437Z</time>
      </trkpt>
      <trkpt lat="43.36654" lon="6.65869">
        <ele>176.7</ele>
        <time>2020-10-04T20:14:38.759Z</time>
      </trkpt>
      <trkpt lat="43.36663" lon="6.65874">
        <ele>174.9</ele>
        <time>2020-10-04T20:14:39.467Z</time>
      </trkpt>
      <trkpt lat="43.36672" lon="6.65871">
        <ele>172.7</ele>
        <time>2020-10-04T20:14:40.207Z</time>
      </trkpt>
      <trkpt lat="43.36681" lon="6.65867">
        <ele>170.7</ele>
        <time>2020-10-04T20:14:40.907Z</time>
      </trkpt>
      <trkpt lat="43.3669" lon="6.65861">
        <ele>168.5</ele>
        <time>2020-10-04T20:14:41.680Z</time>
      </trkpt>
      <trkpt lat="43.36699" lon="6.65858">
        <ele>166.4</ele>
        <time>2020-10-04T20:14:42.390Z</time>
      </trkpt>
      <trkpt lat="43.36706" lon="6.6586">
        <ele>165.1</ele>
        <time>2020-10-04T20:14:42.976Z</time>
      </trkpt>
      <trkpt lat="43.36713" lon="6.65868">
        <ele>164.5</ele>
        <time>2020-10-04T20:14:43.633Z</time>
      </trkpt>
      <trkpt lat="43.36718" lon="6.65877">
        <ele>164.4</ele>
        <time>2020-10-04T20:14:44.601Z</time>
      </trkpt>
      <trkpt lat="43.36721" lon="6.65887">
        <ele>164.6</ele>
        <time>2020-10-04T20:14:46.043Z</time>
      </trkpt>
      <trkpt lat="43.36724" lon="6.65896">
        <ele>164.9</ele>
        <time>2020-10-04T20:14:47.635Z</time>
      </trkpt>
      <trkpt lat="43.36728" lon="6.65906">
        <ele>165.1</ele>
        <time>2020-10-04T20:14:49.020Z</time>
      </trkpt>
      <trkpt lat="43.36731" lon="6.65915">
        <ele>165.3</ele>
        <time>2020-10-04T20:14:50.381Z</time>
      </trkpt>
      <trkpt lat="43.36733" lon="6.65923">
        <ele>165.7</ele>
        <time>2020-10-04T20:14:52.024Z</time>
      </trkpt>
      <trkpt lat="43.36735" lon="6.65932">
        <ele>166.2</ele>
        <time>2020-10-04T20:14:53.908Z</time>
      </trkpt>
      <trkpt lat="43.36736" lon="6.65939">
        <ele>166.7</ele>
        <time>2020-10-04T20:14:55.717Z</time>
      </trkpt>
      <trkpt lat="43.36738" lon="6.65947">
        <ele>167.2</ele>
        <time>2020-10-04T20:14:57.555Z</time>
      </trkpt>
      <trkpt lat="43.36741" lon="6.65955">
        <ele>167.5</ele>
        <time>2020-10-04T20:14:58.984Z</time>
      </trkpt>
      <trkpt lat="43.36743" lon="6.65962">
        <ele>168</ele>
        <time>2020-10-04T20:15:00.804Z</time>
      </trkpt>
      <trkpt lat="43.36745" lon="6.65971">
        <ele>168.6</ele>
        <time>2020-10-04T20:15:02.971Z</time>
      </trkpt>
      <trkpt lat="43.36748" lon="6.65981">
        <ele>169.1</ele>
        <time>2020-10-04T20:15:05.015Z</time>
      </trkpt>
      <trkpt lat="43.36751" lon="6.65993">
        <ele>170.3</ele>
        <time>2020-10-04T20:15:09.520Z</time>
      </trkpt>
      <trkpt lat="43.36752" lon="6.66008">
        <ele>171.8</ele>
        <time>2020-10-04T20:15:15.103Z</time>
      </trkpt>
      <trkpt lat="43.36754" lon="6.66021">
        <ele>173</ele>
        <time>2020-10-04T20:15:19.642Z</time>
      </trkpt>
      <trkpt lat="43.36757" lon="6.66031">
        <ele>174.1</ele>
        <time>2020-10-04T20:15:23.839Z</time>
      </trkpt>
      <trkpt lat="43.36759" lon="6.66042">
        <ele>175.1</ele>
        <time>2020-10-04T20:15:27.593Z</time>
      </trkpt>
      <trkpt lat="43.36759" lon="6.66054">
        <ele>176.2</ele>
        <time>2020-10-04T20:15:31.796Z</time>
      </trkpt>
      <trkpt lat="43.36759" lon="6.66067">
        <ele>177.5</ele>
        <time>2020-10-04T20:15:36.779Z</time>
      </trkpt>
      <trkpt lat="43.36757" lon="6.66079">
        <ele>178.6</ele>
        <time>2020-10-04T20:15:40.851Z</time>
      </trkpt>
      <trkpt lat="43.36758" lon="6.6609">
        <ele>179.6</ele>
        <time>2020-10-04T20:15:44.673Z</time>
      </trkpt>
      <trkpt lat="43.36759" lon="6.661">
        <ele>180.6</ele>
        <time>2020-10-04T20:15:48.605Z</time>
      </trkpt>
      <trkpt lat="43.3676" lon="6.66111">
        <ele>181.6</ele>
        <time>2020-10-04T20:15:52.476Z</time>
      </trkpt>
      <trkpt lat="43.36761" lon="6.66121">
        <ele>182.6</ele>
        <time>2020-10-04T20:15:56.245Z</time>
      </trkpt>
      <trkpt lat="43.36764" lon="6.66132">
        <ele>183.4</ele>
        <time>2020-10-04T20:15:59.087Z</time>
      </trkpt>
      <trkpt lat="43.36764" lon="6.66144">
        <ele>184.6</ele>
        <time>2020-10-04T20:16:03.779Z</time>
      </trkpt>
      <trkpt lat="43.36762" lon="6.66156">
        <ele>185.9</ele>
        <time>2020-10-04T20:16:08.536Z</time>
      </trkpt>
      <trkpt lat="43.3676" lon="6.66169">
        <ele>187.1</ele>
        <time>2020-10-04T20:16:13.091Z</time>
      </trkpt>
      <trkpt lat="43.36757" lon="6.66181">
        <ele>187.8</ele>
        <time>2020-10-04T20:16:15.740Z</time>
      </trkpt>
      <trkpt lat="43.36753" lon="6.66193">
        <ele>188.6</ele>
        <time>2020-10-04T20:16:18.662Z</time>
      </trkpt>
      <trkpt lat="43.36749" lon="6.66204">
        <ele>189.6</ele>
        <time>2020-10-04T20:16:22.230Z</time>
      </trkpt>
      <trkpt lat="43.36743" lon="6.66214">
        <ele>190.9</ele>
        <time>2020-10-04T20:16:27.001Z</time>
      </trkpt>
      <trkpt lat="43.36738" lon="6.66224">
        <ele>192.4</ele>
        <time>2020-10-04T20:16:31.748Z</time>
      </trkpt>
      <trkpt lat="43.36732" lon="6.66232">
        <ele>194</ele>
        <time>2020-10-04T20:16:36.185Z</time>
      </trkpt>
      <trkpt lat="43.36725" lon="6.66233">
        <ele>195.4</ele>
        <time>2020-10-04T20:16:39.885Z</time>
      </trkpt>
      <trkpt lat="43.36725" lon="6.66233">
        <ele>195.4</ele>
        <time>2020-10-04T20:16:39.885Z</time>
      </trkpt>
      <trkpt lat="43.36725" lon="6.66233">
        <ele>195.4</ele>
        <time>2020-10-04T20:16:39.885Z</time>
      </trkpt>
      <trkpt lat="43.36725" lon="6.66233">
        <ele>195.4</ele>
        <time>2020-10-04T20:16:39.885Z</time>
      </trkpt>
      <trkpt lat="43.36725" lon="6.66233">
        <ele>195.4</ele>
        <time>2020-10-04T20:16:39.885Z</time>
      </trkpt>
      <trkpt lat="43.36725" lon="6.66233">
        <ele>195.4</ele>
        <time>2020-10-04T20:16:39.885Z</time>
      </trkpt>
      <trkpt lat="43.36725" lon="6.66233">
        <ele>195.4</ele>
        <time>2020-10-04T20:16:39.885Z</time>
      </trkpt>
      <trkpt lat="43.36725" lon="6.66233">
        <ele>195.4</ele>
        <time>2020-10-04T20:16:39.885Z</time>
      </trkpt>
      <trkpt lat="43.36723" lon="6.66234">
        <ele>195.8</ele>
        <time>2020-10-04T20:16:40.862Z</time>
      </trkpt>
      <trkpt lat="43.36724" lon="6.66242">
        <ele>196.1</ele>
        <time>2020-10-04T20:16:42.195Z</time>
      </trkpt>
      <trkpt lat="43.36717" lon="6.66248">
        <ele>198</ele>
        <time>2020-10-04T20:16:46.776Z</time>
      </trkpt>
      <trkpt lat="43.36706" lon="6.66249">
        <ele>200.5</ele>
        <time>2020-10-04T20:16:52.731Z</time>
      </trkpt>
      <trkpt lat="43.36699" lon="6.66253">
        <ele>202.1</ele>
        <time>2020-10-04T20:16:56.482Z</time>
      </trkpt>
      <trkpt lat="43.36697" lon="6.66264">
        <ele>203.2</ele>
        <time>2020-10-04T20:17:00.578Z</time>
      </trkpt>
      <trkpt lat="43.36693" lon="6.66278">
        <ele>204.7</ele>
        <time>2020-10-04T20:17:06.158Z</time>
      </trkpt>
      <trkpt lat="43.36686" lon="6.66286">
        <ele>207.1</ele>
        <time>2020-10-04T20:17:10.969Z</time>
      </trkpt>
      <trkpt lat="43.36686" lon="6.66286">
        <ele>207.1</ele>
        <time>2020-10-04T20:17:10.969Z</time>
      </trkpt>
      <trkpt lat="43.36683" lon="6.66289">
        <ele>208.1</ele>
        <time>2020-10-04T20:17:12.772Z</time>
      </trkpt>
      <trkpt lat="43.36677" lon="6.6629">
        <ele>209.9</ele>
        <time>2020-10-04T20:17:16.012Z</time>
      </trkpt>
      <trkpt lat="43.36672" lon="6.66301">
        <ele>212.4</ele>
        <time>2020-10-04T20:17:21.223Z</time>
      </trkpt>
      <trkpt lat="43.36669" lon="6.6632">
        <ele>214.9</ele>
        <time>2020-10-04T20:17:28.665Z</time>
      </trkpt>
      <trkpt lat="43.36668" lon="6.66343">
        <ele>216.7</ele>
        <time>2020-10-04T20:17:35.090Z</time>
      </trkpt>
      <trkpt lat="43.36668" lon="6.6637">
        <ele>216.7</ele>
        <time>2020-10-04T20:17:37.751Z</time>
      </trkpt>
      <trkpt lat="43.36672" lon="6.66398">
        <ele>215</ele>
        <time>2020-10-04T20:17:39.339Z</time>
      </trkpt>
      <trkpt lat="43.36674" lon="6.66414">
        <ele>214.2</ele>
        <time>2020-10-04T20:17:40.205Z</time>
      </trkpt>
      <trkpt lat="43.36676" lon="6.66426">
        <ele>211.8</ele>
        <time>2020-10-04T20:17:40.873Z</time>
      </trkpt>
      <trkpt lat="43.36678" lon="6.6644">
        <ele>208.9</ele>
        <time>2020-10-04T20:17:41.702Z</time>
      </trkpt>
      <trkpt lat="43.3668" lon="6.66455">
        <ele>205.9</ele>
        <time>2020-10-04T20:17:42.517Z</time>
      </trkpt>
      <trkpt lat="43.36682" lon="6.66467">
        <ele>203.6</ele>
        <time>2020-10-04T20:17:43.219Z</time>
      </trkpt>
      <trkpt lat="43.36683" lon="6.66472">
        <ele>202.3</ele>
        <time>2020-10-04T20:17:43.507Z</time>
      </trkpt>
      <trkpt lat="43.36683" lon="6.66472">
        <ele>202.3</ele>
        <time>2020-10-04T20:17:43.507Z</time>
      </trkpt>
      <trkpt lat="43.36685" lon="6.66477">
        <ele>200.9</ele>
        <time>2020-10-04T20:17:43.830Z</time>
      </trkpt>
      <trkpt lat="43.36685" lon="6.66483">
        <ele>199.9</ele>
        <time>2020-10-04T20:17:44.133Z</time>
      </trkpt>
      <trkpt lat="43.36685" lon="6.66488">
        <ele>199.2</ele>
        <time>2020-10-04T20:17:44.417Z</time>
      </trkpt>
      <trkpt lat="43.36685" lon="6.66491">
        <ele>198.7</ele>
        <time>2020-10-04T20:17:44.612Z</time>
      </trkpt>
      <trkpt lat="43.36684" lon="6.66497">
        <ele>198.3</ele>
        <time>2020-10-04T20:17:44.973Z</time>
      </trkpt>
      <trkpt lat="43.36683" lon="6.66505">
        <ele>197</ele>
        <time>2020-10-04T20:17:45.392Z</time>
      </trkpt>
      <trkpt lat="43.36685" lon="6.66512">
        <ele>194.8</ele>
        <time>2020-10-04T20:17:45.821Z</time>
      </trkpt>
      <trkpt lat="43.36688" lon="6.66523">
        <ele>191.9</ele>
        <time>2020-10-04T20:17:46.436Z</time>
      </trkpt>
      <trkpt lat="43.3669" lon="6.66533">
        <ele>189.3</ele>
        <time>2020-10-04T20:17:47.022Z</time>
      </trkpt>
      <trkpt lat="43.36692" lon="6.66547">
        <ele>186</ele>
        <time>2020-10-04T20:17:47.837Z</time>
      </trkpt>
      <trkpt lat="43.36696" lon="6.66561">
        <ele>182.5</ele>
        <time>2020-10-04T20:17:48.653Z</time>
      </trkpt>
      <trkpt lat="43.36701" lon="6.66572">
        <ele>179.5</ele>
        <time>2020-10-04T20:17:49.403Z</time>
      </trkpt>
      <trkpt lat="43.36703" lon="6.66586">
        <ele>176.9</ele>
        <time>2020-10-04T20:17:50.162Z</time>
      </trkpt>
      <trkpt lat="43.36708" lon="6.66597">
        <ele>173.5</ele>
        <time>2020-10-04T20:17:50.942Z</time>
      </trkpt>
      <trkpt lat="43.36712" lon="6.66604">
        <ele>171.6</ele>
        <time>2020-10-04T20:17:51.434Z</time>
      </trkpt>
      <trkpt lat="43.36718" lon="6.66616">
        <ele>168.6</ele>
        <time>2020-10-04T20:17:52.214Z</time>
      </trkpt>
      <trkpt lat="43.36724" lon="6.66626">
        <ele>166.1</ele>
        <time>2020-10-04T20:17:52.936Z</time>
      </trkpt>
      <trkpt lat="43.36726" lon="6.66638">
        <ele>163.5</ele>
        <time>2020-10-04T20:17:53.668Z</time>
      </trkpt>
      <trkpt lat="43.36729" lon="6.66652">
        <ele>161</ele>
        <time>2020-10-04T20:17:54.427Z</time>
      </trkpt>
      <trkpt lat="43.3673" lon="6.66662">
        <ele>159.1</ele>
        <time>2020-10-04T20:17:55.006Z</time>
      </trkpt>
      <trkpt lat="43.36732" lon="6.66676">
        <ele>156.3</ele>
        <time>2020-10-04T20:17:55.814Z</time>
      </trkpt>
      <trkpt lat="43.36732" lon="6.66689">
        <ele>153.6</ele>
        <time>2020-10-04T20:17:56.543Z</time>
      </trkpt>
      <trkpt lat="43.36732" lon="6.66702">
        <ele>150.9</ele>
        <time>2020-10-04T20:17:57.261Z</time>
      </trkpt>
      <trkpt lat="43.36731" lon="6.66716">
        <ele>148.1</ele>
        <time>2020-10-04T20:17:58.054Z</time>
      </trkpt>
      <trkpt lat="43.3673" lon="6.66726">
        <ele>146.2</ele>
        <time>2020-10-04T20:17:58.579Z</time>
      </trkpt>
      <trkpt lat="43.3673" lon="6.6673">
        <ele>145.3</ele>
        <time>2020-10-04T20:17:58.829Z</time>
      </trkpt>
      <trkpt lat="43.36731" lon="6.66745">
        <ele>142.2</ele>
        <time>2020-10-04T20:17:59.637Z</time>
      </trkpt>
      <trkpt lat="43.3673" lon="6.66765">
        <ele>140.1</ele>
        <time>2020-10-04T20:18:00.756Z</time>
      </trkpt>
      <trkpt lat="43.36726" lon="6.66784">
        <ele>139.4</ele>
        <time>2020-10-04T20:18:01.975Z</time>
      </trkpt>
      <trkpt lat="43.36733" lon="6.66808">
        <ele>136.1</ele>
        <time>2020-10-04T20:18:03.359Z</time>
      </trkpt>
      <trkpt lat="43.36734" lon="6.66831">
        <ele>133.7</ele>
        <time>2020-10-04T20:18:04.676Z</time>
      </trkpt>
      <trkpt lat="43.36728" lon="6.66851">
        <ele>137.2</ele>
        <time>2020-10-04T20:18:12.745Z</time>
      </trkpt>
      <trkpt lat="43.36714" lon="6.66862">
        <ele>143.9</ele>
        <time>2020-10-04T20:18:21.643Z</time>
      </trkpt>
      <trkpt lat="43.367" lon="6.66867">
        <ele>149.7</ele>
        <time>2020-10-04T20:18:28.989Z</time>
      </trkpt>
      <trkpt lat="43.367" lon="6.66867">
        <ele>149.7</ele>
        <time>2020-10-04T20:18:28.989Z</time>
      </trkpt>
      <trkpt lat="43.36699" lon="6.66873">
        <ele>151.1</ele>
        <time>2020-10-04T20:18:31.257Z</time>
      </trkpt>
      <trkpt lat="43.36702" lon="6.6688">
        <ele>150.7</ele>
        <time>2020-10-04T20:18:31.698Z</time>
      </trkpt>
      <trkpt lat="43.36703" lon="6.66885">
        <ele>150.9</ele>
        <time>2020-10-04T20:18:32.681Z</time>
      </trkpt>
      <trkpt lat="43.36704" lon="6.6689">
        <ele>151.3</ele>
        <time>2020-10-04T20:18:34.129Z</time>
      </trkpt>
      <trkpt lat="43.36705" lon="6.66894">
        <ele>151.3</ele>
        <time>2020-10-04T20:18:34.587Z</time>
      </trkpt>
      <trkpt lat="43.36706" lon="6.669">
        <ele>151.6</ele>
        <time>2020-10-04T20:18:35.762Z</time>
      </trkpt>
      <trkpt lat="43.36707" lon="6.66907">
        <ele>151.9</ele>
        <time>2020-10-04T20:18:37.074Z</time>
      </trkpt>
      <trkpt lat="43.36708" lon="6.66915">
        <ele>152.5</ele>
        <time>2020-10-04T20:18:39.206Z</time>
      </trkpt>
      <trkpt lat="43.3671" lon="6.66927">
        <ele>151.3</ele>
        <time>2020-10-04T20:18:39.875Z</time>
      </trkpt>
      <trkpt lat="43.36711" lon="6.66937">
        <ele>150.5</ele>
        <time>2020-10-04T20:18:40.413Z</time>
      </trkpt>
      <trkpt lat="43.36712" lon="6.66949">
        <ele>149.6</ele>
        <time>2020-10-04T20:18:41.095Z</time>
      </trkpt>
      <trkpt lat="43.36712" lon="6.66962">
        <ele>148.9</ele>
        <time>2020-10-04T20:18:41.819Z</time>
      </trkpt>
      <trkpt lat="43.36712" lon="6.66975">
        <ele>148.3</ele>
        <time>2020-10-04T20:18:42.514Z</time>
      </trkpt>
      <trkpt lat="43.36711" lon="6.66988">
        <ele>148.2</ele>
        <time>2020-10-04T20:18:43.708Z</time>
      </trkpt>
      <trkpt lat="43.36708" lon="6.67003">
        <ele>148.1</ele>
        <time>2020-10-04T20:18:45.091Z</time>
      </trkpt>
      <trkpt lat="43.36704" lon="6.67018">
        <ele>146.3</ele>
        <time>2020-10-04T20:18:45.983Z</time>
      </trkpt>
      <trkpt lat="43.367" lon="6.67039">
        <ele>143.5</ele>
        <time>2020-10-04T20:18:47.198Z</time>
      </trkpt>
      <trkpt lat="43.36692" lon="6.67061">
        <ele>140.8</ele>
        <time>2020-10-04T20:18:48.559Z</time>
      </trkpt>
      <trkpt lat="43.36688" lon="6.67082">
        <ele>137</ele>
        <time>2020-10-04T20:18:49.749Z</time>
      </trkpt>
      <trkpt lat="43.36688" lon="6.671">
        <ele>135</ele>
        <time>2020-10-04T20:18:50.767Z</time>
      </trkpt>
      <trkpt lat="43.36691" lon="6.67121">
        <ele>132.3</ele>
        <time>2020-10-04T20:18:51.942Z</time>
      </trkpt>
      <trkpt lat="43.36694" lon="6.67149">
        <ele>129</ele>
        <time>2020-10-04T20:18:53.529Z</time>
      </trkpt>
      <trkpt lat="43.36693" lon="6.67183">
        <ele>126.7</ele>
        <time>2020-10-04T20:18:55.389Z</time>
      </trkpt>
      <trkpt lat="43.36687" lon="6.67213">
        <ele>126.8</ele>
        <time>2020-10-04T20:18:58.638Z</time>
      </trkpt>
      <trkpt lat="43.36668" lon="6.67221">
        <ele>130.7</ele>
        <time>2020-10-04T20:19:08.863Z</time>
      </trkpt>
      <trkpt lat="43.36656" lon="6.67307">
        <ele>127.4</ele>
        <time>2020-10-04T20:19:13.853Z</time>
      </trkpt>
      <trkpt lat="43.36692" lon="6.6734">
        <ele>120.9</ele>
        <time>2020-10-04T20:19:17.124Z</time>
      </trkpt>
      <trkpt lat="43.36705" lon="6.67368">
        <ele>124.6</ele>
        <time>2020-10-04T20:19:30.033Z</time>
      </trkpt>
      <trkpt lat="43.36707" lon="6.67414">
        <ele>133.2</ele>
        <time>2020-10-04T20:19:47.771Z</time>
      </trkpt>
      <trkpt lat="43.36726" lon="6.67472">
        <ele>138.9</ele>
        <time>2020-10-04T20:20:09.057Z</time>
      </trkpt>
      <trkpt lat="43.3674" lon="6.67514">
        <ele>139.5</ele>
        <time>2020-10-04T20:20:14.577Z</time>
      </trkpt>
      <trkpt lat="43.36752" lon="6.67547">
        <ele>135.9</ele>
        <time>2020-10-04T20:20:16.633Z</time>
      </trkpt>
      <trkpt lat="43.36759" lon="6.67577">
        <ele>134</ele>
        <time>2020-10-04T20:20:18.360Z</time>
      </trkpt>
      <trkpt lat="43.36765" lon="6.67597">
        <ele>133.2</ele>
        <time>2020-10-04T20:20:19.608Z</time>
      </trkpt>
      <trkpt lat="43.36748" lon="6.67681">
        <ele>140.6</ele>
        <time>2020-10-04T20:20:46.551Z</time>
      </trkpt>
      <trkpt lat="43.36756" lon="6.6768">
        <ele>138.8</ele>
        <time>2020-10-04T20:20:47.213Z</time>
      </trkpt>
      <trkpt lat="43.36768" lon="6.67646">
        <ele>134.1</ele>
        <time>2020-10-04T20:20:49.283Z</time>
      </trkpt>
      <trkpt lat="43.36784" lon="6.67562">
        <ele>128.4</ele>
        <time>2020-10-04T20:20:54.135Z</time>
      </trkpt>
      <trkpt lat="43.36784" lon="6.67529">
        <ele>127.9</ele>
        <time>2020-10-04T20:20:56.636Z</time>
      </trkpt>
      <trkpt lat="43.36779" lon="6.675">
        <ele>128.9</ele>
        <time>2020-10-04T20:21:01.745Z</time>
      </trkpt>
      <trkpt lat="43.36772" lon="6.67421">
        <ele>123.6</ele>
        <time>2020-10-04T20:21:06.200Z</time>
      </trkpt>
      <trkpt lat="43.36792" lon="6.67352">
        <ele>110.5</ele>
        <time>2020-10-04T20:21:10.285Z</time>
      </trkpt>
      <trkpt lat="43.3686" lon="6.6727">
        <ele>101.8</ele>
        <time>2020-10-04T20:21:17.225Z</time>
      </trkpt>
      <trkpt lat="43.36971" lon="6.67235">
        <ele>98.8</ele>
        <time>2020-10-04T20:21:28.790Z</time>
      </trkpt>
      <trkpt lat="43.37031" lon="6.67295">
        <ele>107.3</ele>
        <time>2020-10-04T20:21:59.496Z</time>
      </trkpt>
      <trkpt lat="43.37275" lon="6.67326">
        <ele>83.7</ele>
        <time>2020-10-04T20:22:18.239Z</time>
      </trkpt>
      <trkpt lat="43.37336" lon="6.67321">
        <ele>78.6</ele>
        <time>2020-10-04T20:22:22.901Z</time>
      </trkpt>
      <trkpt lat="43.37397" lon="6.67336">
        <ele>74.5</ele>
        <time>2020-10-04T20:22:27.284Z</time>
      </trkpt>
      <trkpt lat="43.37661" lon="6.67454">
        <ele>72.7</ele>
        <time>2020-10-04T20:23:01.770Z</time>
      </trkpt>
      <trkpt lat="43.37719" lon="6.67488">
        <ele>68.3</ele>
        <time>2020-10-04T20:23:06.599Z</time>
      </trkpt>
      <trkpt lat="43.37813" lon="6.67488">
        <ele>64.5</ele>
        <time>2020-10-04T20:23:14.781Z</time>
      </trkpt>
      <trkpt lat="43.379" lon="6.67459">
        <ele>68</ele>
        <time>2020-10-04T20:23:33.856Z</time>
      </trkpt>
      <trkpt lat="43.37993" lon="6.67447">
        <ele>64.5</ele>
        <time>2020-10-04T20:23:42.243Z</time>
      </trkpt>
      <trkpt lat="43.38096" lon="6.67497">
        <ele>55.5</ele>
        <time>2020-10-04T20:23:50.587Z</time>
      </trkpt>
      <trkpt lat="43.38155" lon="6.67535">
        <ele>58</ele>
        <time>2020-10-04T20:24:04.351Z</time>
      </trkpt>
      <trkpt lat="43.38262" lon="6.676">
        <ele>53.9</ele>
        <time>2020-10-04T20:24:15.096Z</time>
      </trkpt>
      <trkpt lat="43.38324" lon="6.67592">
        <ele>53.4</ele>
        <time>2020-10-04T20:24:23.009Z</time>
      </trkpt>
      <trkpt lat="43.38398" lon="6.67601">
        <ele>54.7</ele>
        <time>2020-10-04T20:24:34.997Z</time>
      </trkpt>
      <trkpt lat="43.38447" lon="6.67618">
        <ele>53.4</ele>
        <time>2020-10-04T20:24:40.252Z</time>
      </trkpt>
      <trkpt lat="43.38483" lon="6.67625">
        <ele>51.4</ele>
        <time>2020-10-04T20:24:42.956Z</time>
      </trkpt>
      <trkpt lat="43.38524" lon="6.67612">
        <ele>49.7</ele>
        <time>2020-10-04T20:24:46.694Z</time>
      </trkpt>
      <trkpt lat="43.38562" lon="6.67603">
        <ele>47.1</ele>
        <time>2020-10-04T20:24:49.658Z</time>
      </trkpt>
      <trkpt lat="43.38607" lon="6.67615">
        <ele>45.7</ele>
        <time>2020-10-04T20:24:54.019Z</time>
      </trkpt>
      <trkpt lat="43.38661" lon="6.67625">
        <ele>43.8</ele>
        <time>2020-10-04T20:24:59.124Z</time>
      </trkpt>
      <trkpt lat="43.38682" lon="6.67625">
        <ele>43.6</ele>
        <time>2020-10-04T20:25:01.737Z</time>
      </trkpt>
      <trkpt lat="43.38725" lon="6.67659">
        <ele>43.6</ele>
        <time>2020-10-04T20:25:08.464Z</time>
      </trkpt>
      <trkpt lat="43.3877" lon="6.67676">
        <ele>42.9</ele>
        <time>2020-10-04T20:25:13.889Z</time>
      </trkpt>
      <trkpt lat="43.38804" lon="6.67674">
        <ele>40</ele>
        <time>2020-10-04T20:25:16.458Z</time>
      </trkpt>
      <trkpt lat="43.38835" lon="6.67657">
        <ele>38.5</ele>
        <time>2020-10-04T20:25:19.288Z</time>
      </trkpt>
      <trkpt lat="43.38879" lon="6.67647">
        <ele>36.6</ele>
        <time>2020-10-04T20:25:23.073Z</time>
      </trkpt>
      <trkpt lat="43.38943" lon="6.67666">
        <ele>29.8</ele>
        <time>2020-10-04T20:25:28.112Z</time>
      </trkpt>
      <trkpt lat="43.38988" lon="6.67678">
        <ele>29.2</ele>
        <time>2020-10-04T20:25:33.548Z</time>
      </trkpt>
      <trkpt lat="43.39034" lon="6.67673">
        <ele>26.1</ele>
        <time>2020-10-04T20:25:37.080Z</time>
      </trkpt>
      <trkpt lat="43.39159" lon="6.67613">
        <ele>32.5</ele>
        <time>2020-10-04T20:26:08.288Z</time>
      </trkpt>
      <trkpt lat="43.3924" lon="6.67605">
        <ele>31.5</ele>
        <time>2020-10-04T20:26:18.026Z</time>
      </trkpt>
      <trkpt lat="43.39303" lon="6.67592">
        <ele>29.5</ele>
        <time>2020-10-04T20:26:24.097Z</time>
      </trkpt>
      <trkpt lat="43.39666" lon="6.67447">
        <ele>16.4</ele>
        <time>2020-10-04T20:26:59.134Z</time>
      </trkpt>
      <trkpt lat="43.39694" lon="6.67452">
        <ele>15.6</ele>
        <time>2020-10-04T20:27:01.886Z</time>
      </trkpt>
      <trkpt lat="43.39717" lon="6.67469">
        <ele>15</ele>
        <time>2020-10-04T20:27:04.606Z</time>
      </trkpt>
      <trkpt lat="43.39855" lon="6.6759">
        <ele>15</ele>
        <time>2020-10-04T20:27:27.045Z</time>
      </trkpt>
      <trkpt lat="43.39731" lon="6.67486">
        <ele>14.6</ele>
        <time>2020-10-04T20:27:46.141Z</time>
      </trkpt>
    </trkseg>
  </trk>
</gpx>